Time,TemperatureF,DewpointF,PressureIn,WindDirection,WindDirectionDegrees,WindSpeedMPH,WindSpeedGustMPH,Humidity,HourlyPrecipIn,Conditions,Clouds,dailyrainin,SoftwareType,DateUTC
2013-01-15 00:00:00,32.0,30.5,30.23,NW,308,1.0,7.0,94,0.00,,---,0.00,VWS V14.01,2013-01-15 06:00:00,
2013-01-15 00:01:00,31.9,30.1,30.22,North,5,5.0,7.0,93,0.00,,---,0.02,VWS V14.01,2013-01-15 06:01:00,
2013-01-15 00:02:00,31.9,30.1,30.21,NNW,333,3.0,5.0,93,0.00,,---,0.00,VWS V14.01,2013-01-15 06:02:00,
2013-01-15 00:05:00,32.1,30.6,30.22,NNE,12,2.0,7.0,94,0.00,,---,0.00,VWS V14.01,2013-01-15 06:05:00,
2013-01-15 00:06:00,31.9,30.1,30.21,NW,321,2.0,3.0,93,0.00,,---,0.00,VWS V14.01,2013-01-15 06:06:00,
2013-01-15 00:07:00,31.9,30.1,30.21,NW,311,2.0,4.0,93,0.00,,---,0.00,VWS V14.01,2013-01-15 06:07:00,
2013-01-15 00:08:00,31.9,30.1,30.21,NNE,20,2.0,4.0,93,0.00,,---,0.00,VWS V14.01,2013-01-15 06:08:00,
2013-01-15 00:10:00,32.1,30.6,30.23,NW,315,4.0,7.0,94,0.00,,---,0.00,VWS V14.01,2013-01-15 06:10:00,
2013-01-15 00:11:00,32.0,30.2,30.21,East,80,1.0,1.0,93,0.00,,---,0.00,VWS V14.01,2013-01-15 06:11:00,
2013-01-15 00:12:00,32.0,30.2,30.21,NE,51,2.0,2.0,93,0.00,,---,0.00,VWS V14.01,2013-01-15 06:12:00,
2013-01-15 00:13:00,31.9,30.1,30.21,NNW,328,1.0,2.0,93,0.00,,---,0.00,VWS V14.01,2013-01-15 06:13:00,
2013-01-15 00:15:00,32.0,30.5,30.23,NNW,341,6.0,10.0,94,0.00,,---,0.00,VWS V14.01,2013-01-15 06:15:00,
2013-01-15 00:16:00,32.0,30.2,30.21,NNW,340,2.0,2.0,93,0.00,,---,0.00,VWS V14.01,2013-01-15 06:16:00,
2013-01-15 00:17:00,32.0,30.2,30.21,NW,309,2.0,2.0,93,0.00,,---,0.00,VWS V14.01,2013-01-15 06:17:00,
2013-01-15 00:18:00,32.0,30.2,30.21,NNW,333,3.0,5.0,93,0.00,,---,0.00,VWS V14.01,2013-01-15 06:18:00,
2013-01-15 00:20:00,32.0,30.5,30.23,NNE,15,4.0,7.0,94,0.00,,---,0.00,VWS V14.01,2013-01-15 06:20:00,
2013-01-15 00:21:00,32.0,30.2,30.21,NW,315,0.0,2.0,93,0.00,,---,0.00,VWS V14.01,2013-01-15 06:21:00,
2013-01-15 00:22:00,32.0,30.2,30.21,NNW,330,2.0,2.0,93,0.00,,---,0.00,VWS V14.01,2013-01-15 06:22:00,
2013-01-15 00:23:00,32.0,30.2,30.21,NW,314,2.0,5.0,93,0.00,,---,0.00,VWS V14.01,2013-01-15 06:23:00,
2013-01-15 00:25:00,32.1,30.6,30.22,NW,315,4.0,7.0,94,0.00,,---,0.00,VWS V14.01,2013-01-15 06:25:00,
2013-01-15 00:27:00,31.9,30.1,30.21,NW,313,2.0,2.0,93,0.00,,---,0.00,VWS V14.01,2013-01-15 06:27:00,
2013-01-15 00:28:00,32.0,30.2,30.21,NNW,346,3.0,6.0,93,0.00,,---,0.00,VWS V14.01,2013-01-15 06:28:00,
2013-01-15 00:30:00,32.1,30.6,30.22,NW,315,3.0,10.0,94,0.00,,---,0.00,VWS V14.01,2013-01-15 06:30:00,
2013-01-15 00:31:00,32.0,30.2,30.21,WNW,295,3.0,3.0,93,0.00,,---,0.00,VWS V14.01,2013-01-15 06:31:00,
2013-01-15 00:32:00,32.0,30.2,30.21,NW,312,6.0,6.0,93,0.00,,---,0.00,VWS V14.01,2013-01-15 06:32:00,
2013-01-15 00:33:00,32.0,30.2,30.21,NNW,333,4.0,6.0,93,0.00,,---,0.00,VWS V14.01,2013-01-15 06:33:00,
2013-01-15 00:35:00,32.1,30.6,30.22,NNW,344,3.0,7.0,94,0.00,,---,0.00,VWS V14.01,2013-01-15 06:35:00,
2013-01-15 00:37:00,32.0,30.2,30.22,NW,320,2.0,3.0,93,0.00,,---,0.00,VWS V14.01,2013-01-15 06:37:00,
2013-01-15 00:38:00,32.0,30.5,30.22,NNW,346,2.0,3.0,94,0.00,,---,0.00,VWS V14.01,2013-01-15 06:38:00,
2013-01-15 00:40:00,32.1,30.6,30.22,NNW,331,3.0,7.0,94,0.00,,---,0.00,VWS V14.01,2013-01-15 06:40:00,
2013-01-15 00:42:00,32.0,30.2,30.23,NE,35,1.0,2.0,93,0.00,,---,0.00,VWS V14.01,2013-01-15 06:42:00,
2013-01-15 00:43:00,32.0,30.5,30.23,NNW,344,3.0,4.0,94,0.00,,---,0.00,VWS V14.01,2013-01-15 06:43:00,
2013-01-15 00:45:00,32.1,30.6,30.22,NE,35,2.0,9.0,94,0.00,,---,0.00,VWS V14.01,2013-01-15 06:45:00,
2013-01-15 00:47:00,32.0,30.5,30.23,NE,50,4.0,5.0,94,0.00,,---,0.00,VWS V14.01,2013-01-15 06:47:00,
2013-01-15 00:48:00,32.0,30.5,30.23,NW,324,2.0,5.0,94,0.00,,---,0.00,VWS V14.01,2013-01-15 06:48:00,
2013-01-15 00:50:00,32.2,30.7,30.22,NW,313,2.0,9.0,94,0.00,,---,0.00,VWS V14.01,2013-01-15 06:50:00,
2013-01-15 00:52:00,32.0,30.5,30.23,NNE,27,1.0,9.0,94,0.00,,---,0.00,VWS V14.01,2013-01-15 06:52:00,
2013-01-15 00:53:00,32.0,30.5,30.23,NNW,348,2.0,9.0,94,0.00,,---,0.00,VWS V14.01,2013-01-15 06:53:00,
2013-01-15 00:55:00,32.2,30.7,30.22,NW,318,4.0,6.0,94,0.00,,---,0.00,VWS V14.01,2013-01-15 06:55:00,
2013-01-15 00:57:00,32.0,30.5,30.23,NNW,340,5.0,5.0,94,0.00,,---,0.00,VWS V14.01,2013-01-15 06:57:00,
2013-01-15 00:58:00,32.0,30.5,30.23,NNE,17,3.0,7.0,94,0.00,,---,0.00,VWS V14.01,2013-01-15 06:58:00,
2013-01-15 01:00:00,32.2,30.7,30.22,NW,310,3.0,6.0,94,0.00,,---,0.00,VWS V14.01,2013-01-15 07:00:00,
2013-01-15 01:02:00,32.1,30.6,30.22,NW,319,2.0,2.0,94,0.00,,---,0.00,VWS V14.01,2013-01-15 07:02:00,
2013-01-15 01:03:00,32.1,30.6,30.22,NE,43,2.0,2.0,94,0.00,,---,0.00,VWS V14.01,2013-01-15 07:03:00,
2013-01-15 01:05:00,32.2,30.7,30.22,East,82,6.0,10.0,94,0.00,,---,0.00,VWS V14.01,2013-01-15 07:05:00,
2013-01-15 01:08:00,32.1,30.6,30.22,NNW,327,2.0,6.0,94,0.00,,---,0.00,VWS V14.01,2013-01-15 07:08:00,
2013-01-15 01:10:00,32.2,30.7,30.22,NNE,17,5.0,7.0,94,0.00,,---,0.00,VWS V14.01,2013-01-15 07:10:00,
2013-01-15 01:13:00,32.1,30.6,30.23,NNE,24,4.0,4.0,94,0.00,,---,0.00,VWS V14.01,2013-01-15 07:13:00,
2013-01-15 01:14:00,32.1,30.6,30.23,NW,326,3.0,5.0,94,0.00,,---,0.00,VWS V14.01,2013-01-15 07:14:00,
2013-01-15 01:15:00,32.1,30.6,30.22,NNE,18,4.0,9.0,94,0.00,,---,0.00,VWS V14.01,2013-01-15 07:15:00,
2013-01-15 01:18:00,32.0,30.5,30.23,NW,319,5.0,7.0,94,0.00,,---,0.00,VWS V14.01,2013-01-15 07:18:00,
2013-01-15 01:19:00,32.0,30.5,30.23,WNW,295,1.0,7.0,94,0.00,,---,0.00,VWS V14.01,2013-01-15 07:19:00,
2013-01-15 01:20:00,32.2,30.7,30.22,NW,317,5.0,8.0,94,0.00,,---,0.00,VWS V14.01,2013-01-15 07:20:00,
2013-01-15 01:23:00,32.1,30.6,30.23,NNW,341,5.0,7.0,94,0.00,,---,0.00,VWS V14.01,2013-01-15 07:23:00,
2013-01-15 01:24:00,32.1,30.6,30.22,NW,304,4.0,7.0,94,0.00,,---,0.00,VWS V14.01,2013-01-15 07:24:00,
2013-01-15 01:25:00,32.1,30.6,30.22,NNE,32,3.0,10.0,94,0.00,,---,0.00,VWS V14.01,2013-01-15 07:25:00,
2013-01-15 01:28:00,32.1,30.6,30.22,NNW,340,4.0,9.0,94,0.00,,---,0.00,VWS V14.01,2013-01-15 07:28:00,
2013-01-15 01:29:00,32.1,30.6,30.22,NNE,18,3.0,9.0,94,0.00,,---,0.00,VWS V14.01,2013-01-15 07:29:00,
2013-01-15 01:30:00,32.1,30.6,30.22,NNW,344,7.0,13.0,94,0.00,,---,0.00,VWS V14.01,2013-01-15 07:30:00,
2013-01-15 01:33:00,32.1,30.6,30.22,North,5,5.0,5.0,94,0.00,,---,0.00,VWS V14.01,2013-01-15 07:33:00,
2013-01-15 01:34:00,32.1,30.6,30.22,NW,309,1.0,5.0,94,0.00,,---,0.00,VWS V14.01,2013-01-15 07:34:00,
2013-01-15 01:35:00,32.1,30.6,30.22,NNW,327,1.0,7.0,94,0.00,,---,0.00,VWS V14.01,2013-01-15 07:35:00,
2013-01-15 01:38:00,32.1,30.6,30.22,NNW,338,5.0,7.0,94,0.00,,---,0.00,VWS V14.01,2013-01-15 07:38:00,
2013-01-15 01:39:00,32.1,30.6,30.22,NW,326,4.0,7.0,94,0.00,,---,0.00,VWS V14.01,2013-01-15 07:39:00,
2013-01-15 01:40:00,32.1,30.6,30.23,North,350,0.0,7.0,94,0.00,,---,0.00,VWS V14.01,2013-01-15 07:40:00,
2013-01-15 01:43:00,32.1,30.6,30.22,NNW,338,5.0,9.0,94,0.00,,---,0.00,VWS V14.01,2013-01-15 07:43:00,
2013-01-15 01:44:00,32.1,30.6,30.22,ENE,64,3.0,9.0,94,0.00,,---,0.00,VWS V14.01,2013-01-15 07:44:00,
2013-01-15 01:45:00,32.1,30.6,30.23,NE,35,4.0,6.0,94,0.00,,---,0.00,VWS V14.01,2013-01-15 07:45:00,
2013-01-15 01:48:00,32.2,30.7,30.21,NNW,335,4.0,4.0,94,0.00,,---,0.00,VWS V14.01,2013-01-15 07:48:00,
2013-01-15 01:49:00,32.2,30.7,30.21,NW,317,8.0,8.0,94,0.00,,---,0.00,VWS V14.01,2013-01-15 07:49:00,
2013-01-15 01:50:00,32.1,30.6,30.23,NNW,333,2.0,9.0,94,0.00,,---,0.00,VWS V14.01,2013-01-15 07:50:00,
2013-01-15 01:54:00,32.2,30.7,30.22,NW,311,4.0,6.0,94,0.00,,---,0.00,VWS V14.01,2013-01-15 07:54:00,
2013-01-15 01:55:00,32.1,30.6,30.22,NNE,32,4.0,6.0,94,0.00,,---,0.00,VWS V14.01,2013-01-15 07:55:00,
2013-01-15 01:59:00,32.2,30.7,30.22,North,350,2.0,4.0,94,0.00,,---,0.00,VWS V14.01,2013-01-15 07:59:00,
2013-01-15 02:00:00,32.2,30.7,30.22,WNW,301,4.0,4.0,94,0.00,,---,0.00,VWS V14.01,2013-01-15 08:00:00,
2013-01-15 02:04:00,32.2,30.7,30.22,NNW,337,7.0,9.0,94,0.00,,---,0.00,VWS V14.01,2013-01-15 08:04:00,
2013-01-15 02:05:00,32.2,30.7,30.22,NW,315,4.0,10.0,94,0.00,,---,0.00,VWS V14.01,2013-01-15 08:05:00,
2013-01-15 02:09:00,32.1,30.6,30.22,NW,322,2.0,7.0,94,0.00,,---,0.00,VWS V14.01,2013-01-15 08:09:00,
2013-01-15 02:10:00,32.2,30.7,30.22,NW,313,1.0,7.0,94,0.00,,---,0.00,VWS V14.01,2013-01-15 08:10:00,
2013-01-15 02:14:00,32.1,30.6,30.22,NE,44,4.0,8.0,94,0.00,,---,0.00,VWS V14.01,2013-01-15 08:14:00,
2013-01-15 02:15:00,32.1,30.6,30.22,WNW,302,2.0,9.0,94,0.00,,---,0.00,VWS V14.01,2013-01-15 08:15:00,
2013-01-15 02:19:00,32.2,30.7,30.22,North,355,3.0,7.0,94,0.00,,---,0.00,VWS V14.01,2013-01-15 08:19:00,
2013-01-15 02:20:00,32.2,30.7,30.22,NNW,344,5.0,7.0,94,0.00,,---,0.00,VWS V14.01,2013-01-15 08:20:00,
2013-01-15 02:24:00,32.2,30.7,30.22,NNE,15,3.0,10.0,94,0.00,,---,0.00,VWS V14.01,2013-01-15 08:24:00,
2013-01-15 02:25:00,32.1,30.6,30.22,NNW,329,6.0,10.0,94,0.00,,---,0.00,VWS V14.01,2013-01-15 08:25:00,
2013-01-15 02:29:00,32.1,30.6,30.22,NW,324,3.0,13.0,94,0.00,,---,0.00,VWS V14.01,2013-01-15 08:29:00,
2013-01-15 02:30:00,32.1,30.6,30.22,NNW,333,3.0,13.0,94,0.00,,---,0.00,VWS V14.01,2013-01-15 08:30:00,
2013-01-15 02:34:00,32.1,30.6,30.22,NNW,331,3.0,7.0,94,0.00,,---,0.00,VWS V14.01,2013-01-15 08:34:00,
2013-01-15 02:35:00,32.1,30.6,30.22,NE,36,4.0,7.0,94,0.00,,---,0.00,VWS V14.01,2013-01-15 08:35:00,
2013-01-15 02:39:00,32.1,30.6,30.22,North,351,3.0,7.0,94,0.00,,---,0.00,VWS V14.01,2013-01-15 08:39:00,
2013-01-15 02:40:00,32.1,30.6,30.22,NW,310,3.0,7.0,94,0.00,,---,0.00,VWS V14.01,2013-01-15 08:40:00,
2013-01-15 02:44:00,32.1,30.6,30.23,NE,50,2.0,4.0,94,0.00,,---,0.00,VWS V14.01,2013-01-15 08:44:00,
2013-01-15 02:45:00,32.1,30.6,30.23,NNW,346,4.0,4.0,94,0.00,,---,0.00,VWS V14.01,2013-01-15 08:45:00,
2013-01-15 02:50:00,32.1,30.6,30.22,NNE,27,3.0,9.0,94,0.00,,---,0.00,VWS V14.01,2013-01-15 08:50:00,
2013-01-15 02:55:00,32.1,30.6,30.23,NW,310,3.0,6.0,94,0.00,,---,0.00,VWS V14.01,2013-01-15 08:55:00,
2013-01-15 03:00:00,32.1,30.6,30.23,NW,324,2.0,6.0,94,0.00,,---,0.00,VWS V14.01,2013-01-15 09:00:00,
2013-01-15 03:01:00,32.1,30.6,30.23,NW,311,1.0,6.0,94,0.00,,---,0.00,VWS V14.01,2013-01-15 09:01:00,
2013-01-15 03:05:00,32.1,30.6,30.22,NW,320,2.0,6.0,94,0.00,,---,0.00,VWS V14.01,2013-01-15 09:05:00,
2013-01-15 03:06:00,32.1,30.6,30.23,WNW,299,2.0,6.0,94,0.00,,---,0.00,VWS V14.01,2013-01-15 09:06:00,
2013-01-15 03:10:00,32.0,30.5,30.23,North,355,3.0,7.0,94,0.00,,---,0.00,VWS V14.01,2013-01-15 09:10:00,
2013-01-15 03:11:00,32.0,30.5,30.23,NE,40,4.0,7.0,94,0.00,,---,0.00,VWS V14.01,2013-01-15 09:11:00,
2013-01-15 03:15:00,32.0,30.5,30.23,NW,323,2.0,3.0,94,0.00,,---,0.00,VWS V14.01,2013-01-15 09:15:00,
2013-01-15 03:16:00,32.0,30.5,30.23,NNE,23,2.0,3.0,94,0.00,,---,0.00,VWS V14.01,2013-01-15 09:16:00,
2013-01-15 03:20:00,32.0,30.5,30.23,NNW,333,5.0,8.0,94,0.00,,---,0.00,VWS V14.01,2013-01-15 09:20:00,
2013-01-15 03:21:00,32.0,30.5,30.23,NW,325,4.0,8.0,94,0.00,,---,0.00,VWS V14.01,2013-01-15 09:21:00,
2013-01-15 03:25:00,32.0,30.5,30.22,NW,304,2.0,5.0,94,0.00,,---,0.00,VWS V14.01,2013-01-15 09:25:00,
2013-01-15 03:26:00,32.0,30.5,30.22,NW,313,4.0,5.0,94,0.00,,---,0.00,VWS V14.01,2013-01-15 09:26:00,
2013-01-15 03:30:00,32.0,30.5,30.23,NW,320,5.0,9.0,94,0.00,,---,0.00,VWS V14.01,2013-01-15 09:30:00,
2013-01-15 03:31:00,32.0,30.5,30.23,NW,319,6.0,9.0,94,0.00,,---,0.00,VWS V14.01,2013-01-15 09:31:00,
2013-01-15 03:35:00,31.8,30.3,30.23,North,11,3.0,8.0,94,0.00,,---,0.00,VWS V14.01,2013-01-15 09:35:00,
2013-01-15 03:36:00,31.8,30.3,30.23,NNW,329,3.0,8.0,94,0.00,,---,0.00,VWS V14.01,2013-01-15 09:36:00,
2013-01-15 03:40:00,31.8,30.3,30.23,NW,313,3.0,9.0,94,0.00,,---,0.00,VWS V14.01,2013-01-15 09:40:00,
2013-01-15 03:41:00,31.7,30.2,30.23,NW,319,1.0,1.0,94,0.00,,---,0.00,VWS V14.01,2013-01-15 09:41:00,
2013-01-15 03:42:00,31.7,30.2,30.23,NW,317,3.0,3.0,94,0.00,,---,0.00,VWS V14.01,2013-01-15 09:42:00,
2013-01-15 03:45:00,31.7,30.2,30.23,NW,304,3.0,10.0,94,0.00,,---,0.00,VWS V14.01,2013-01-15 09:45:00,
2013-01-15 03:46:00,31.7,30.2,30.23,NNW,348,3.0,10.0,94,0.00,,---,0.00,VWS V14.01,2013-01-15 09:46:00,
2013-01-15 03:47:00,31.7,30.2,30.23,WNW,299,4.0,7.0,94,0.00,,---,0.00,VWS V14.01,2013-01-15 09:47:00,
2013-01-15 03:50:00,30.9,29.1,30.23,NNW,329,3.0,7.0,93,0.00,,---,0.00,VWS V14.01,2013-01-15 09:50:00,
2013-01-15 03:51:00,31.6,29.8,30.23,NNW,331,4.0,7.0,93,0.00,,---,0.00,VWS V14.01,2013-01-15 09:51:00,
2013-01-15 03:52:00,31.6,29.8,30.23,NNW,333,4.0,5.0,93,0.00,,---,0.00,VWS V14.01,2013-01-15 09:52:00,
2013-01-15 03:55:00,30.9,29.1,30.22,NW,325,3.0,7.0,93,0.00,,---,0.00,VWS V14.01,2013-01-15 09:55:00,
2013-01-15 03:56:00,31.6,29.8,30.23,North,350,5.0,11.0,93,0.00,,---,0.00,VWS V14.01,2013-01-15 09:56:00,
2013-01-15 03:57:00,31.6,29.8,30.23,NE,38,6.0,7.0,93,0.00,,---,0.00,VWS V14.01,2013-01-15 09:57:00,
2013-01-15 04:00:00,30.9,29.4,30.22,ENE,71,3.0,9.0,94,0.00,,---,0.00,VWS V14.01,2013-01-15 10:00:00,
2013-01-15 04:01:00,31.5,29.7,30.23,NNW,334,7.0,10.0,93,0.00,,---,0.00,VWS V14.01,2013-01-15 10:01:00,
2013-01-15 04:02:00,31.4,29.6,30.23,NNE,17,2.0,7.0,93,0.00,,---,0.00,VWS V14.01,2013-01-15 10:02:00,
2013-01-15 04:05:00,30.8,29.3,30.22,WNW,303,4.0,12.0,94,0.00,,---,0.00,VWS V14.01,2013-01-15 10:05:00,
2013-01-15 04:06:00,31.4,29.6,30.24,NNW,333,5.0,10.0,93,0.00,,---,0.00,VWS V14.01,2013-01-15 10:06:00,
2013-01-15 04:07:00,31.4,29.6,30.24,NW,323,3.0,6.0,93,0.00,,---,0.00,VWS V14.01,2013-01-15 10:07:00,
2013-01-15 04:10:00,30.8,29.3,30.22,NW,317,3.0,10.0,94,0.00,,---,0.00,VWS V14.01,2013-01-15 10:10:00,
2013-01-15 04:11:00,31.4,29.6,30.23,NW,317,2.0,7.0,93,0.00,,---,0.00,VWS V14.01,2013-01-15 10:11:00,
2013-01-15 04:12:00,31.4,29.6,30.23,NW,312,6.0,6.0,93,0.00,,---,0.00,VWS V14.01,2013-01-15 10:12:00,
2013-01-15 04:15:00,30.8,29.3,30.23,NNW,331,3.0,8.0,94,0.00,,---,0.00,VWS V14.01,2013-01-15 10:15:00,
2013-01-15 04:16:00,31.4,29.6,30.23,NW,315,4.0,9.0,93,0.00,,---,0.00,VWS V14.01,2013-01-15 10:16:00,
2013-01-15 04:17:00,31.4,29.6,30.23,WNW,303,6.0,10.0,93,0.00,,---,0.00,VWS V14.01,2013-01-15 10:17:00,
2013-01-15 04:20:00,30.8,29.3,30.23,NNW,331,2.0,4.0,94,0.00,,---,0.00,VWS V14.01,2013-01-15 10:20:00,
2013-01-15 04:21:00,31.3,29.5,30.23,West,280,2.0,10.0,93,0.00,,---,0.00,VWS V14.01,2013-01-15 10:21:00,
2013-01-15 04:22:00,31.3,29.5,30.23,NW,323,2.0,5.0,93,0.00,,---,0.00,VWS V14.01,2013-01-15 10:22:00,
2013-01-15 04:25:00,30.8,29.3,30.23,NNW,344,7.0,9.0,94,0.00,,---,0.00,VWS V14.01,2013-01-15 10:25:00,
2013-01-15 04:26:00,31.3,29.5,30.23,NNW,329,2.0,6.0,93,0.00,,---,0.00,VWS V14.01,2013-01-15 10:26:00,
2013-01-15 04:27:00,31.2,29.4,30.23,NW,313,7.0,10.0,93,0.00,,---,0.00,VWS V14.01,2013-01-15 10:27:00,
2013-01-15 04:30:00,30.8,29.3,30.24,NNE,12,2.0,10.0,94,0.00,,---,0.00,VWS V14.01,2013-01-15 10:30:00,
2013-01-15 04:31:00,31.1,29.3,30.23,NW,318,3.0,11.0,93,0.00,,---,0.00,VWS V14.01,2013-01-15 10:31:00,
2013-01-15 04:32:00,31.1,29.3,30.23,NW,326,5.0,7.0,93,0.00,,---,0.00,VWS V14.01,2013-01-15 10:32:00,
2013-01-15 04:33:00,31.1,29.3,30.23,WNW,296,4.0,7.0,93,0.00,,---,0.00,VWS V14.01,2013-01-15 10:33:00,
2013-01-15 04:35:00,30.8,29.3,30.23,NW,319,0.0,7.0,94,0.00,,---,0.00,VWS V14.01,2013-01-15 10:35:00,
2013-01-15 04:36:00,31.1,29.3,30.23,NNW,341,3.0,7.0,93,0.00,,---,0.00,VWS V14.01,2013-01-15 10:36:00,
2013-01-15 04:37:00,31.1,29.3,30.23,NNW,333,5.0,6.0,93,0.00,,---,0.00,VWS V14.01,2013-01-15 10:37:00,
2013-01-15 04:38:00,31.1,29.3,30.23,NW,326,4.0,6.0,93,0.00,,---,0.00,VWS V14.01,2013-01-15 10:38:00,
2013-01-15 04:40:00,30.8,29.3,30.22,NNW,340,3.0,5.0,94,0.00,,---,0.00,VWS V14.01,2013-01-15 10:40:00,
2013-01-15 04:41:00,31.0,29.2,30.22,NW,311,3.0,6.0,93,0.00,,---,0.00,VWS V14.01,2013-01-15 10:41:00,
2013-01-15 04:42:00,31.0,29.2,30.22,NW,314,4.0,6.0,93,0.00,,---,0.00,VWS V14.01,2013-01-15 10:42:00,
2013-01-15 04:43:00,31.0,29.2,30.23,NW,323,3.0,9.0,93,0.00,,---,0.00,VWS V14.01,2013-01-15 10:43:00,
2013-01-15 04:45:00,30.9,29.4,30.22,NW,326,4.0,5.0,94,0.00,,---,0.00,VWS V14.01,2013-01-15 10:45:00,
2013-01-15 04:46:00,30.9,29.1,30.23,NNE,27,6.0,6.0,93,0.00,,---,0.00,VWS V14.01,2013-01-15 10:46:00,
2013-01-15 04:47:00,30.9,29.1,30.23,NW,311,4.0,6.0,93,0.00,,---,0.00,VWS V14.01,2013-01-15 10:47:00,
2013-01-15 04:48:00,30.9,29.1,30.23,NNE,22,6.0,7.0,93,0.00,,---,0.00,VWS V14.01,2013-01-15 10:48:00,
2013-01-15 04:50:00,30.8,29.3,30.22,WNW,303,3.0,8.0,94,0.00,,---,0.00,VWS V14.01,2013-01-15 10:50:00,
2013-01-15 04:51:00,30.9,29.1,30.23,NW,309,1.0,5.0,93,0.00,,---,0.00,VWS V14.01,2013-01-15 10:51:00,
2013-01-15 04:52:00,30.9,29.1,30.23,NNE,26,3.0,5.0,93,0.00,,---,0.00,VWS V14.01,2013-01-15 10:52:00,
2013-01-15 04:53:00,30.9,29.1,30.23,NNW,348,2.0,7.0,93,0.00,,---,0.00,VWS V14.01,2013-01-15 10:53:00,
2013-01-15 04:55:00,30.8,29.3,30.22,NNW,336,5.0,6.0,94,0.00,,---,0.00,VWS V14.01,2013-01-15 10:55:00,
2013-01-15 04:57:00,30.9,29.1,30.22,NW,321,2.0,4.0,93,0.00,,---,0.00,VWS V14.01,2013-01-15 10:57:00,
2013-01-15 04:58:00,30.9,29.1,30.22,WNW,303,4.0,5.0,93,0.00,,---,0.00,VWS V14.01,2013-01-15 10:58:00,
2013-01-15 05:00:00,30.8,29.3,30.22,NNW,345,0.0,9.0,94,0.00,,---,0.00,VWS V14.01,2013-01-15 11:00:00,
2013-01-15 05:02:00,30.9,29.4,30.22,NW,322,1.0,5.0,94,0.00,,---,0.00,VWS V14.01,2013-01-15 11:02:00,
2013-01-15 05:03:00,30.9,29.4,30.22,NNW,329,6.0,6.0,94,0.00,,---,0.00,VWS V14.01,2013-01-15 11:03:00,
2013-01-15 05:05:00,30.8,29.3,30.22,NE,39,2.0,5.0,94,0.00,,---,0.00,VWS V14.01,2013-01-15 11:05:00,
2013-01-15 05:07:00,30.8,29.3,30.22,NW,317,9.0,10.0,94,0.00,,---,0.00,VWS V14.01,2013-01-15 11:07:00,
2013-01-15 05:08:00,30.8,29.3,30.22,NNW,344,3.0,10.0,94,0.00,,---,0.00,VWS V14.01,2013-01-15 11:08:00,
2013-01-15 05:10:00,30.9,29.4,30.22,NW,320,1.0,7.0,94,0.00,,---,0.00,VWS V14.01,2013-01-15 11:10:00,
2013-01-15 05:12:00,30.8,29.3,30.23,NW,320,1.0,4.0,94,0.00,,---,0.00,VWS V14.01,2013-01-15 11:12:00,
2013-01-15 05:13:00,30.8,29.3,30.23,NW,311,3.0,4.0,94,0.00,,---,0.00,VWS V14.01,2013-01-15 11:13:00,
2013-01-15 05:15:00,30.9,29.4,30.23,NW,312,0.0,4.0,94,0.00,,---,0.00,VWS V14.01,2013-01-15 11:15:00,
2013-01-15 05:17:00,30.8,29.3,30.23,NE,53,1.0,4.0,94,0.00,,---,0.00,VWS V14.01,2013-01-15 11:17:00,
2013-01-15 05:18:00,30.8,29.3,30.23,NW,325,2.0,4.0,94,0.00,,---,0.00,VWS V14.01,2013-01-15 11:18:00,
2013-01-15 05:20:00,31.0,29.5,30.23,NW,310,3.0,4.0,94,0.00,,---,0.00,VWS V14.01,2013-01-15 11:20:00,
2013-01-15 05:22:00,30.8,29.3,30.23,NW,317,2.0,5.0,94,0.00,,---,0.00,VWS V14.01,2013-01-15 11:22:00,
2013-01-15 05:23:00,30.8,29.3,30.23,NNW,329,2.0,5.0,94,0.00,,---,0.00,VWS V14.01,2013-01-15 11:23:00,
2013-01-15 05:24:00,30.8,29.3,30.23,WNW,300,1.0,6.0,94,0.00,,---,0.00,VWS V14.01,2013-01-15 11:24:00,
2013-01-15 05:25:00,31.0,29.5,30.24,North,11,1.0,5.0,94,0.00,,---,0.00,VWS V14.01,2013-01-15 11:25:00,
2013-01-15 05:27:00,30.8,29.3,30.23,North,350,4.0,10.0,94,0.00,,---,0.00,VWS V14.01,2013-01-15 11:27:00,
2013-01-15 05:28:00,30.8,29.3,30.23,NW,311,3.0,10.0,94,0.00,,---,0.00,VWS V14.01,2013-01-15 11:28:00,
2013-01-15 05:29:00,30.8,29.3,30.24,ENE,64,2.0,10.0,94,0.00,,---,0.00,VWS V14.01,2013-01-15 11:29:00,
2013-01-15 05:30:00,31.0,29.5,30.23,NW,323,1.0,4.0,94,0.00,,---,0.00,VWS V14.01,2013-01-15 11:30:00,
2013-01-15 05:32:00,30.8,29.3,30.23,NNE,20,1.0,2.0,94,0.00,,---,0.00,VWS V14.01,2013-01-15 11:32:00,
2013-01-15 05:33:00,30.8,29.3,30.23,NE,49,2.0,2.0,94,0.00,,---,0.00,VWS V14.01,2013-01-15 11:33:00,
2013-01-15 05:34:00,30.8,29.3,30.23,NNE,32,1.0,3.0,94,0.00,,---,0.00,VWS V14.01,2013-01-15 11:34:00,
2013-01-15 05:35:00,31.1,29.6,30.22,NE,42,4.0,5.0,94,0.00,,---,0.00,VWS V14.01,2013-01-15 11:35:00,
2013-01-15 05:38:00,30.8,29.3,30.22,NNE,22,2.0,5.0,94,0.00,,---,0.00,VWS V14.01,2013-01-15 11:38:00,
2013-01-15 05:39:00,30.8,29.3,30.22,NE,49,3.0,5.0,94,0.00,,---,0.00,VWS V14.01,2013-01-15 11:39:00,
2013-01-15 05:40:00,31.1,29.6,30.22,NNW,338,1.0,6.0,94,0.00,,---,0.00,VWS V14.01,2013-01-15 11:40:00,
2013-01-15 05:43:00,30.9,29.4,30.22,NW,324,1.0,5.0,94,0.00,,---,0.00,VWS V14.01,2013-01-15 11:43:00,
2013-01-15 05:44:00,30.8,29.3,30.22,NW,311,3.0,5.0,94,0.00,,---,0.00,VWS V14.01,2013-01-15 11:44:00,
2013-01-15 05:45:00,31.2,29.9,30.22,North,351,4.0,4.0,95,0.00,,---,0.00,VWS V14.01,2013-01-15 11:45:00,
2013-01-15 05:48:00,30.9,29.4,30.22,NW,313,3.0,8.0,94,0.00,,---,0.00,VWS V14.01,2013-01-15 11:48:00,
2013-01-15 05:49:00,30.8,29.3,30.22,NNW,345,4.0,8.0,94,0.00,,---,0.00,VWS V14.01,2013-01-15 11:49:00,
2013-01-15 05:50:00,31.3,30.0,30.23,NNW,327,2.0,6.0,95,0.00,,---,0.00,VWS V14.01,2013-01-15 11:50:00,
2013-01-15 05:53:00,30.8,29.3,30.22,NNE,22,4.0,4.0,94,0.00,,---,0.00,VWS V14.01,2013-01-15 11:53:00,
2013-01-15 05:54:00,30.8,29.3,30.21,NNW,346,3.0,6.0,94,0.00,,---,0.00,VWS V14.01,2013-01-15 11:54:00,
2013-01-15 05:55:00,31.4,30.1,30.22,East,86,2.0,5.0,95,0.00,,---,0.00,VWS V14.01,2013-01-15 11:55:00,
2013-01-15 05:58:00,30.8,29.3,30.22,NNE,13,1.0,9.0,94,0.00,,---,0.00,VWS V14.01,2013-01-15 11:58:00,
2013-01-15 05:59:00,30.8,29.3,30.22,NW,315,4.0,9.0,94,0.00,,---,0.00,VWS V14.01,2013-01-15 11:59:00,
2013-01-15 06:00:00,31.4,30.1,30.22,NE,42,2.0,4.0,95,0.00,,---,0.00,VWS V14.01,2013-01-15 12:00:00,
2013-01-15 06:03:00,30.8,29.3,30.22,NW,313,5.0,5.0,94,0.00,,---,0.00,VWS V14.01,2013-01-15 12:03:00,
2013-01-15 06:04:00,30.8,29.3,30.22,NNE,27,3.0,5.0,94,0.00,,---,0.00,VWS V14.01,2013-01-15 12:04:00,
2013-01-15 06:05:00,31.5,30.2,30.21,ENE,78,3.0,7.0,95,0.00,,---,0.00,VWS V14.01,2013-01-15 12:05:00,
2013-01-15 06:08:00,30.8,29.3,30.22,NE,53,4.0,5.0,94,0.00,,---,0.00,VWS V14.01,2013-01-15 12:08:00,
2013-01-15 06:09:00,30.9,29.4,30.22,NE,35,4.0,5.0,94,0.00,,---,0.00,VWS V14.01,2013-01-15 12:09:00,
2013-01-15 06:10:00,31.6,30.3,30.21,East,88,0.0,4.0,95,0.00,,---,0.00,VWS V14.01,2013-01-15 12:10:00,
2013-01-15 06:14:00,30.9,29.4,30.23,NNW,338,2.0,4.0,94,0.00,,---,0.00,VWS V14.01,2013-01-15 12:14:00,
2013-01-15 06:15:00,31.7,30.4,30.22,NNW,335,0.0,1.0,95,0.00,,---,0.00,VWS V14.01,2013-01-15 12:15:00,
2013-01-15 06:19:00,30.9,29.4,30.23,NNW,331,0.0,3.0,94,0.00,,---,0.00,VWS V14.01,2013-01-15 12:19:00,
2013-01-15 06:20:00,31.8,30.5,30.21,NW,325,0.0,4.0,95,0.00,,---,0.00,VWS V14.01,2013-01-15 12:20:00,
2013-01-15 06:24:00,31.0,29.5,30.24,NW,326,3.0,3.0,94,0.00,,---,0.00,VWS V14.01,2013-01-15 12:24:00,
2013-01-15 06:25:00,31.9,30.4,30.21,North,355,2.0,4.0,94,0.00,,---,0.00,VWS V14.01,2013-01-15 12:25:00,
2013-01-15 06:29:00,31.1,29.6,30.23,NNE,29,2.0,4.0,94,0.00,,---,0.00,VWS V14.01,2013-01-15 12:29:00,
2013-01-15 06:30:00,31.0,29.5,30.23,NNE,16,2.0,4.0,94,0.00,,---,0.00,VWS V14.01,2013-01-15 12:30:00,
2013-01-15 06:34:00,31.1,29.6,30.22,NNW,340,1.0,5.0,94,0.00,,---,0.00,VWS V14.01,2013-01-15 12:34:00,
2013-01-15 06:35:00,31.1,29.6,30.22,North,351,1.0,5.0,94,0.00,,---,0.00,VWS V14.01,2013-01-15 12:35:00,
2013-01-15 06:39:00,31.1,29.6,30.22,NNE,29,2.0,6.0,94,0.00,,---,0.00,VWS V14.01,2013-01-15 12:39:00,
2013-01-15 06:40:00,31.1,29.6,30.21,NNE,29,4.0,6.0,94,0.00,,---,0.00,VWS V14.01,2013-01-15 12:40:00,
2013-01-15 06:44:00,31.2,29.9,30.22,NNE,12,2.0,3.0,95,0.00,,---,0.00,VWS V14.01,2013-01-15 12:44:00,
2013-01-15 06:45:00,31.2,29.9,30.22,NNW,345,1.0,3.0,95,0.00,,---,0.00,VWS V14.01,2013-01-15 12:45:00,
2013-01-15 06:49:00,31.3,30.0,30.23,NW,310,0.0,4.0,95,0.00,,---,0.00,VWS V14.01,2013-01-15 12:49:00,
2013-01-15 06:50:00,31.3,30.0,30.23,NNE,15,2.0,4.0,95,0.00,,---,0.00,VWS V14.01,2013-01-15 12:50:00,
2013-01-15 06:54:00,31.4,30.1,30.22,NNE,22,3.0,5.0,95,0.00,,---,0.00,VWS V14.01,2013-01-15 12:54:00,
2013-01-15 06:55:00,31.4,30.1,30.22,NW,310,2.0,5.0,95,0.00,,---,0.00,VWS V14.01,2013-01-15 12:55:00,
2013-01-15 06:59:00,31.4,30.1,30.22,NW,325,1.0,4.0,95,0.00,,---,0.00,VWS V14.01,2013-01-15 12:59:00,
2013-01-15 07:00:00,31.4,30.1,30.22,NE,36,3.0,4.0,95,0.00,,---,0.00,VWS V14.01,2013-01-15 13:00:00,
2013-01-15 07:04:00,31.5,30.2,30.21,NNW,342,1.0,7.0,95,0.00,,---,0.00,VWS V14.01,2013-01-15 13:04:00,
2013-01-15 07:05:00,31.5,30.2,30.21,NNW,337,4.0,7.0,95,0.00,,---,0.00,VWS V14.01,2013-01-15 13:05:00,
2013-01-15 07:09:00,31.5,30.2,30.21,NE,44,2.0,4.0,95,0.00,,---,0.00,VWS V14.01,2013-01-15 13:09:00,
2013-01-15 07:10:00,31.6,30.3,30.21,NE,44,0.0,4.0,95,0.00,,---,0.00,VWS V14.01,2013-01-15 13:10:00,
2013-01-15 07:11:00,31.6,30.3,30.21,ENE,60,0.0,4.0,95,0.00,,---,0.00,VWS V14.01,2013-01-15 13:11:00,
2013-01-15 07:14:00,31.6,30.3,30.22,NW,306,0.0,1.0,95,0.00,,---,0.00,VWS V14.01,2013-01-15 13:14:00,
2013-01-15 07:15:00,31.6,30.3,30.22,WNW,298,0.0,1.0,95,0.00,,---,0.00,VWS V14.01,2013-01-15 13:15:00,
2013-01-15 07:16:00,31.7,30.4,30.22,NW,313,0.0,1.0,95,0.00,,---,0.00,VWS V14.01,2013-01-15 13:16:00,
2013-01-15 07:20:00,31.7,30.4,30.22,NNE,22,0.0,4.0,95,0.00,,---,0.00,VWS V14.01,2013-01-15 13:20:00,
2013-01-15 07:21:00,31.8,30.5,30.21,NE,35,3.0,4.0,95,0.00,,---,0.00,VWS V14.01,2013-01-15 13:21:00,
2013-01-15 07:24:00,31.8,30.3,30.21,ENE,78,0.0,4.0,94,0.00,,---,0.00,VWS V14.01,2013-01-15 13:24:00,
2013-01-15 07:25:00,31.8,30.3,30.21,NE,53,1.0,4.0,94,0.00,,---,0.00,VWS V14.01,2013-01-15 13:25:00,
2013-01-15 07:26:00,31.8,30.3,30.21,NNE,17,1.0,4.0,94,0.00,,---,0.00,VWS V14.01,2013-01-15 13:26:00,
2013-01-15 07:30:00,31.9,30.4,30.22,NNW,331,1.0,4.0,94,0.00,,---,0.00,VWS V14.01,2013-01-15 13:30:00,
2013-01-15 07:31:00,31.9,30.4,30.22,NW,317,2.0,5.0,94,0.00,,---,0.00,VWS V14.01,2013-01-15 13:31:00,
2013-01-15 07:35:00,32.0,30.5,30.23,NNE,27,1.0,3.0,94,0.00,,---,0.00,VWS V14.01,2013-01-15 13:35:00,
2013-01-15 07:36:00,32.0,30.5,30.23,NNW,328,1.0,3.0,94,0.00,,---,0.00,VWS V14.01,2013-01-15 13:36:00,
2013-01-15 07:40:00,32.1,30.6,30.22,NE,49,0.0,3.0,94,0.00,,---,0.00,VWS V14.01,2013-01-15 13:40:00,
2013-01-15 07:41:00,32.1,30.6,30.22,NE,47,2.0,3.0,94,0.00,,---,0.00,VWS V14.01,2013-01-15 13:41:00,
2013-01-15 07:45:00,32.2,30.7,30.22,NNW,338,3.0,4.0,94,0.00,,---,0.00,VWS V14.01,2013-01-15 13:45:00,
2013-01-15 07:46:00,32.2,30.7,30.22,NW,311,0.0,4.0,94,0.00,,---,0.00,VWS V14.01,2013-01-15 13:46:00,
2013-01-15 07:50:00,32.3,30.8,30.21,NW,319,2.0,4.0,94,0.00,,---,0.00,VWS V14.01,2013-01-15 13:50:00,
2013-01-15 07:51:00,32.3,30.8,30.20,NNW,348,2.0,4.0,94,0.00,,---,0.00,VWS V14.01,2013-01-15 13:51:00,
2013-01-15 07:55:00,32.3,30.8,30.21,NNW,346,1.0,4.0,94,0.00,,---,0.00,VWS V14.01,2013-01-15 13:55:00,
2013-01-15 07:56:00,32.3,30.8,30.21,NE,35,3.0,4.0,94,0.00,,---,0.00,VWS V14.01,2013-01-15 13:56:00,
2013-01-15 08:00:00,32.3,30.8,30.22,WNW,288,0.0,5.0,94,0.00,,---,0.00,VWS V14.01,2013-01-15 14:00:00,
2013-01-15 08:01:00,32.3,30.8,30.22,North,355,3.0,5.0,94,0.00,,---,0.00,VWS V14.01,2013-01-15 14:01:00,
2013-01-15 08:05:00,32.3,30.8,30.23,NE,40,2.0,3.0,94,0.00,,---,0.00,VWS V14.01,2013-01-15 14:05:00,
2013-01-15 08:06:00,32.4,30.9,30.22,NE,35,0.0,3.0,94,0.00,,---,0.00,VWS V14.01,2013-01-15 14:06:00,
2013-01-15 08:10:00,32.4,30.9,30.22,NW,310,1.0,5.0,94,0.00,,---,0.00,VWS V14.01,2013-01-15 14:10:00,
2013-01-15 08:11:00,32.4,30.9,30.22,NNE,15,0.0,5.0,94,0.00,,---,0.00,VWS V14.01,2013-01-15 14:11:00,
2013-01-15 08:15:00,32.4,30.9,30.24,NW,323,0.0,2.0,94,0.00,,---,0.00,VWS V14.01,2013-01-15 14:15:00,
2013-01-15 08:16:00,32.4,30.9,30.24,NNW,336,2.0,3.0,94,0.00,,---,0.00,VWS V14.01,2013-01-15 14:16:00,
2013-01-15 08:17:00,32.4,30.9,30.24,NW,310,3.0,3.0,94,0.00,,---,0.00,VWS V14.01,2013-01-15 14:17:00,
2013-01-15 08:20:00,32.4,30.9,30.23,NW,312,3.0,3.0,94,0.00,,---,0.00,VWS V14.01,2013-01-15 14:20:00,
2013-01-15 08:21:00,32.4,30.9,30.23,NW,310,1.0,3.0,94,0.00,,---,0.00,VWS V14.01,2013-01-15 14:21:00,
2013-01-15 08:22:00,32.4,30.9,30.23,NW,311,2.0,3.0,94,0.00,,---,0.00,VWS V14.01,2013-01-15 14:22:00,
2013-01-15 08:25:00,32.4,30.9,30.23,NW,313,1.0,3.0,94,0.00,,---,0.00,VWS V14.01,2013-01-15 14:25:00,
2013-01-15 08:26:00,32.4,30.9,30.23,NW,320,0.0,0.0,94,0.00,,---,0.00,VWS V14.01,2013-01-15 14:26:00,
2013-01-15 08:27:00,32.4,30.9,30.23,NW,317,3.0,3.0,94,0.00,,---,0.00,VWS V14.01,2013-01-15 14:27:00,
2013-01-15 08:30:00,32.4,30.9,30.23,NW,323,4.0,4.0,94,0.00,,---,0.00,VWS V14.01,2013-01-15 14:30:00,
2013-01-15 08:31:00,32.4,30.9,30.23,NW,326,2.0,2.0,94,0.00,,---,0.00,VWS V14.01,2013-01-15 14:31:00,
2013-01-15 08:32:00,32.4,30.9,30.23,NW,310,3.0,3.0,94,0.00,,---,0.00,VWS V14.01,2013-01-15 14:32:00,
2013-01-15 08:35:00,33.1,31.6,30.19,NNE,22,2.0,7.0,94,0.00,,---,0.00,VWS V14.01,2013-01-15 14:35:00,
2013-01-15 08:36:00,32.3,30.8,30.22,NNW,333,1.0,5.0,94,0.00,,---,0.00,VWS V14.01,2013-01-15 14:36:00,
2013-01-15 08:37:00,32.3,30.8,30.23,NW,313,1.0,3.0,94,0.00,,---,0.00,VWS V14.01,2013-01-15 14:37:00,
2013-01-15 08:40:00,33.1,31.6,30.19,NNE,24,2.0,6.0,94,0.00,,---,0.00,VWS V14.01,2013-01-15 14:40:00,
2013-01-15 08:41:00,32.4,30.9,30.23,NW,306,4.0,4.0,94,0.00,,---,0.00,VWS V14.01,2013-01-15 14:41:00,
2013-01-15 08:42:00,32.4,30.9,30.23,NNW,335,3.0,4.0,94,0.00,,---,0.00,VWS V14.01,2013-01-15 14:42:00,
2013-01-15 08:45:00,33.3,31.8,30.19,North,360,3.0,6.0,94,0.00,,---,0.00,VWS V14.01,2013-01-15 14:45:00,
2013-01-15 08:46:00,32.4,30.9,30.23,NNW,347,3.0,4.0,94,0.00,,---,0.00,VWS V14.01,2013-01-15 14:46:00,
2013-01-15 08:47:00,32.4,30.9,30.23,NNW,344,2.0,4.0,94,0.00,,---,0.00,VWS V14.01,2013-01-15 14:47:00,
2013-01-15 08:50:00,33.3,31.8,30.19,NNE,17,4.0,9.0,94,0.00,,---,0.00,VWS V14.01,2013-01-15 14:50:00,
2013-01-15 08:51:00,32.4,30.9,30.22,NW,318,2.0,4.0,94,0.00,,---,0.00,VWS V14.01,2013-01-15 14:51:00,
2013-01-15 08:52:00,32.4,30.9,30.22,NNW,342,1.0,2.0,94,0.00,,---,0.00,VWS V14.01,2013-01-15 14:52:00,
2013-01-15 08:55:00,33.5,32.0,30.20,NW,310,3.0,6.0,94,0.00,,---,0.00,VWS V14.01,2013-01-15 14:55:00,
2013-01-15 08:56:00,32.5,31.0,30.21,NW,322,1.0,6.0,94,0.00,,---,0.00,VWS V14.01,2013-01-15 14:56:00,
2013-01-15 08:57:00,32.5,31.0,30.21,NNW,344,2.0,4.0,94,0.00,,---,0.00,VWS V14.01,2013-01-15 14:57:00,
2013-01-15 08:58:00,32.5,31.0,30.21,NE,49,2.0,4.0,94,0.00,,---,0.00,VWS V14.01,2013-01-15 14:58:00,
2013-01-15 09:00:00,33.5,32.0,30.21,NNW,340,3.0,6.0,94,0.00,,---,0.00,VWS V14.01,2013-01-15 15:00:00,
2013-01-15 09:01:00,32.6,31.1,30.19,NNW,343,1.0,4.0,94,0.00,,---,0.00,VWS V14.01,2013-01-15 15:01:00,
2013-01-15 09:02:00,32.6,31.1,30.19,NW,317,0.0,4.0,94,0.00,,---,0.00,VWS V14.01,2013-01-15 15:02:00,
2013-01-15 09:03:00,32.6,31.1,30.19,NNE,22,3.0,4.0,94,0.00,,---,0.00,VWS V14.01,2013-01-15 15:03:00,
2013-01-15 09:05:00,33.5,32.0,30.20,NNE,13,2.0,6.0,94,0.00,,---,0.00,VWS V14.01,2013-01-15 15:05:00,
2013-01-15 09:06:00,32.6,31.1,30.20,NW,315,1.0,4.0,94,0.00,,---,0.00,VWS V14.01,2013-01-15 15:06:00,
2013-01-15 09:07:00,32.6,31.1,30.20,NNE,26,4.0,4.0,94,0.00,,---,0.00,VWS V14.01,2013-01-15 15:07:00,
2013-01-15 09:08:00,32.6,31.1,30.20,NW,307,4.0,4.0,94,0.00,,---,0.00,VWS V14.01,2013-01-15 15:08:00,
2013-01-15 09:10:00,33.6,32.1,30.18,NNW,328,4.0,10.0,94,0.00,,---,0.00,VWS V14.01,2013-01-15 15:10:00,
2013-01-15 09:11:00,32.7,31.2,30.20,NW,313,3.0,6.0,94,0.00,,---,0.00,VWS V14.01,2013-01-15 15:11:00,
2013-01-15 09:12:00,32.7,31.2,30.20,NNE,24,3.0,5.0,94,0.00,,---,0.00,VWS V14.01,2013-01-15 15:12:00,
2013-01-15 09:13:00,32.7,31.2,30.20,WNW,300,2.0,5.0,94,0.00,,---,0.00,VWS V14.01,2013-01-15 15:13:00,
2013-01-15 09:15:00,33.7,32.2,30.17,NNW,338,4.0,6.0,94,0.00,,---,0.00,VWS V14.01,2013-01-15 15:15:00,
2013-01-15 09:17:00,32.8,31.3,30.20,NW,318,1.0,1.0,94,0.00,,---,0.00,VWS V14.01,2013-01-15 15:17:00,
2013-01-15 09:18:00,32.8,31.3,30.21,WNW,303,2.0,4.0,94,0.00,,---,0.00,VWS V14.01,2013-01-15 15:18:00,
2013-01-15 09:20:00,33.7,32.2,30.18,NW,319,0.0,10.0,94,0.00,,---,0.00,VWS V14.01,2013-01-15 15:20:00,
2013-01-15 09:22:00,32.9,31.4,30.21,NNW,344,3.0,3.0,94,0.00,,---,0.00,VWS V14.01,2013-01-15 15:22:00,
2013-01-15 09:23:00,32.9,31.4,30.21,NNE,20,3.0,4.0,94,0.00,,---,0.00,VWS V14.01,2013-01-15 15:23:00,
2013-01-15 09:25:00,33.8,32.3,30.17,NE,49,2.0,7.0,94,0.00,,---,0.00,VWS V14.01,2013-01-15 15:25:00,
2013-01-15 09:27:00,33.0,31.5,30.21,North,350,3.0,5.0,94,0.00,,---,0.00,VWS V14.01,2013-01-15 15:27:00,
2013-01-15 09:28:00,33.0,31.5,30.21,NW,313,3.0,5.0,94,0.00,,---,0.00,VWS V14.01,2013-01-15 15:28:00,
2013-01-15 09:30:00,33.9,32.4,30.17,North,11,2.0,5.0,94,0.00,,---,0.00,VWS V14.01,2013-01-15 15:30:00,
2013-01-15 09:32:00,33.0,31.5,30.19,NNW,339,3.0,4.0,94,0.00,,---,0.00,VWS V14.01,2013-01-15 15:32:00,
2013-01-15 09:33:00,33.1,31.6,30.19,NW,318,2.0,4.0,94,0.00,,---,0.00,VWS V14.01,2013-01-15 15:33:00,
2013-01-15 09:35:00,33.9,32.4,30.17,NW,313,2.0,10.0,94,0.00,,---,0.00,VWS V14.01,2013-01-15 15:35:00,
2013-01-15 09:37:00,33.1,31.6,30.20,NW,322,3.0,3.0,94,0.00,,---,0.00,VWS V14.01,2013-01-15 15:37:00,
2013-01-15 09:38:00,33.1,31.6,30.20,NE,35,4.0,6.0,94,0.00,,---,0.00,VWS V14.01,2013-01-15 15:38:00,
2013-01-15 09:40:00,34.0,32.5,30.17,NNW,331,3.0,6.0,94,0.00,,---,0.00,VWS V14.01,2013-01-15 15:40:00,
2013-01-15 09:42:00,33.1,31.6,30.19,NW,313,1.0,2.0,94,0.00,,---,0.00,VWS V14.01,2013-01-15 15:42:00,
2013-01-15 09:43:00,33.2,31.7,30.18,NW,313,6.0,6.0,94,0.00,,---,0.00,VWS V14.01,2013-01-15 15:43:00,
2013-01-15 09:45:00,34.0,32.5,30.18,NW,313,1.0,5.0,94,0.00,,---,0.00,VWS V14.01,2013-01-15 15:45:00,
2013-01-15 09:47:00,33.3,31.8,30.19,NW,315,1.0,3.0,94,0.00,,---,0.00,VWS V14.01,2013-01-15 15:47:00,
2013-01-15 09:48:00,33.3,31.8,30.19,ESE,117,2.0,7.0,94,0.00,,---,0.00,VWS V14.01,2013-01-15 15:48:00,
2013-01-15 09:50:00,34.1,32.6,30.18,NNE,22,2.0,4.0,94,0.00,,---,0.00,VWS V14.01,2013-01-15 15:50:00,
2013-01-15 09:52:00,33.3,31.8,30.19,NW,325,3.0,4.0,94,0.00,,---,0.00,VWS V14.01,2013-01-15 15:52:00,
2013-01-15 09:53:00,33.4,31.9,30.19,NNE,20,6.0,6.0,94,0.00,,---,0.00,VWS V14.01,2013-01-15 15:53:00,
2013-01-15 09:54:00,33.4,31.9,30.19,NNW,333,3.0,6.0,94,0.00,,---,0.00,VWS V14.01,2013-01-15 15:54:00,
2013-01-15 09:55:00,34.1,32.6,30.15,NNW,331,2.0,6.0,94,0.00,,---,0.00,VWS V14.01,2013-01-15 15:55:00,
2013-01-15 09:57:00,33.4,31.9,30.20,NW,310,5.0,6.0,94,0.00,,---,0.00,VWS V14.01,2013-01-15 15:57:00,
2013-01-15 09:58:00,33.5,32.0,30.21,NW,309,2.0,6.0,94,0.00,,---,0.00,VWS V14.01,2013-01-15 15:58:00,
2013-01-15 09:59:00,33.5,32.0,30.21,NW,306,2.0,6.0,94,0.00,,---,0.00,VWS V14.01,2013-01-15 15:59:00,
2013-01-15 10:00:00,34.2,32.7,30.14,WNW,288,3.0,7.0,94,0.00,,---,0.00,VWS V14.01,2013-01-15 16:00:00,
2013-01-15 10:02:00,33.5,32.0,30.21,NNE,20,1.0,4.0,94,0.00,,---,0.00,VWS V14.01,2013-01-15 16:02:00,
2013-01-15 10:03:00,33.5,32.0,30.20,NE,56,2.0,4.0,94,0.00,,---,0.00,VWS V14.01,2013-01-15 16:03:00,
2013-01-15 10:04:00,33.5,32.0,30.20,NNW,346,5.0,5.0,94,0.00,,---,0.00,VWS V14.01,2013-01-15 16:04:00,
2013-01-15 10:05:00,34.2,32.7,30.16,NW,320,5.0,7.0,94,0.00,,---,0.00,VWS V14.01,2013-01-15 16:05:00,
2013-01-15 10:07:00,33.5,32.0,30.19,NNE,12,2.0,4.0,94,0.00,,---,0.00,VWS V14.01,2013-01-15 16:07:00,
2013-01-15 10:09:00,33.6,32.1,30.18,NNW,328,3.0,5.0,94,0.00,,---,0.00,VWS V14.01,2013-01-15 16:09:00,
2013-01-15 10:10:00,34.2,32.7,30.16,NNE,29,2.0,7.0,94,0.00,,---,0.00,VWS V14.01,2013-01-15 16:10:00,
2013-01-15 10:12:00,33.6,32.1,30.18,NW,315,0.0,5.0,94,0.00,,---,0.00,VWS V14.01,2013-01-15 16:12:00,
2013-01-15 10:14:00,33.6,32.1,30.17,NW,317,1.0,5.0,94,0.00,,---,0.00,VWS V14.01,2013-01-15 16:14:00,
2013-01-15 10:15:00,34.2,32.7,30.16,NNW,330,2.0,6.0,94,0.00,,---,0.00,VWS V14.01,2013-01-15 16:15:00,
2013-01-15 10:17:00,33.7,32.2,30.17,NNE,26,5.0,6.0,94,0.00,,---,0.00,VWS V14.01,2013-01-15 16:17:00,
2013-01-15 10:19:00,33.7,32.2,30.17,NE,42,1.0,10.0,94,0.00,,---,0.00,VWS V14.01,2013-01-15 16:19:00,
2013-01-15 10:20:00,34.1,32.6,30.15,NNW,340,1.0,9.0,94,0.01,,---,0.01,VWS V14.01,2013-01-15 16:20:00,
2013-01-15 10:22:00,33.7,32.2,30.18,NW,310,6.0,6.0,94,0.00,,---,0.00,VWS V14.01,2013-01-15 16:22:00,
2013-01-15 10:24:00,33.7,32.2,30.17,North,11,5.0,7.0,94,0.00,,---,0.00,VWS V14.01,2013-01-15 16:24:00,
2013-01-15 10:25:00,34.1,32.6,30.13,North,355,4.0,8.0,94,0.01,,---,0.01,VWS V14.01,2013-01-15 16:25:00,
2013-01-15 10:27:00,33.8,32.3,30.17,NW,315,2.0,4.0,94,0.00,,---,0.00,VWS V14.01,2013-01-15 16:27:00,
2013-01-15 10:29:00,33.8,32.3,30.17,NNW,329,0.0,5.0,94,0.00,,---,0.00,VWS V14.01,2013-01-15 16:29:00,
2013-01-15 10:30:00,34.1,32.6,30.12,NNW,331,2.0,9.0,94,0.01,,---,0.01,VWS V14.01,2013-01-15 16:30:00,
2013-01-15 10:32:00,33.9,32.4,30.17,NNW,344,4.0,10.0,94,0.00,,---,0.00,VWS V14.01,2013-01-15 16:32:00,
2013-01-15 10:34:00,33.9,32.4,30.17,NNE,20,2.0,10.0,94,0.00,,---,0.00,VWS V14.01,2013-01-15 16:34:00,
2013-01-15 10:35:00,34.1,32.6,30.11,NW,306,4.0,9.0,94,0.01,,---,0.01,VWS V14.01,2013-01-15 16:35:00,
2013-01-15 10:37:00,33.9,32.4,30.17,NE,42,2.0,5.0,94,0.00,,---,0.00,VWS V14.01,2013-01-15 16:37:00,
2013-01-15 10:39:00,33.9,32.4,30.17,ENE,57,4.0,5.0,94,0.00,,---,0.00,VWS V14.01,2013-01-15 16:39:00,
2013-01-15 10:40:00,34.2,32.7,30.11,NNW,338,2.0,9.0,94,0.01,,---,0.01,VWS V14.01,2013-01-15 16:40:00,
2013-01-15 10:43:00,34.0,32.5,30.17,ENE,59,1.0,5.0,94,0.00,,---,0.00,VWS V14.01,2013-01-15 16:43:00,
2013-01-15 10:44:00,34.0,32.5,30.18,NNE,12,1.0,5.0,94,0.00,,---,0.00,VWS V14.01,2013-01-15 16:44:00,
2013-01-15 10:45:00,34.0,32.5,30.18,NNE,29,3.0,5.0,94,0.00,,---,0.00,VWS V14.01,2013-01-15 16:45:00,
2013-01-15 10:48:00,34.1,32.6,30.18,NW,311,2.0,4.0,94,0.00,,---,0.00,VWS V14.01,2013-01-15 16:48:00,
2013-01-15 10:49:00,34.1,32.6,30.18,NW,317,0.0,4.0,94,0.00,,---,0.00,VWS V14.01,2013-01-15 16:49:00,
2013-01-15 10:50:00,34.1,32.6,30.18,North,5,2.0,4.0,94,0.00,,---,0.00,VWS V14.01,2013-01-15 16:50:00,
2013-01-15 10:53:00,34.1,32.6,30.16,NE,35,1.0,4.0,94,0.00,,---,0.00,VWS V14.01,2013-01-15 16:53:00,
2013-01-15 10:54:00,34.2,32.7,30.16,NW,326,2.0,4.0,94,0.00,,---,0.00,VWS V14.01,2013-01-15 16:54:00,
2013-01-15 10:55:00,34.1,32.6,30.15,NNW,333,4.0,5.0,94,0.00,,---,0.00,VWS V14.01,2013-01-15 16:55:00,
2013-01-15 10:58:00,34.2,32.7,30.14,NNW,336,2.0,5.0,94,0.00,,---,0.00,VWS V14.01,2013-01-15 16:58:00,
2013-01-15 10:59:00,34.2,32.7,30.14,NNW,344,5.0,6.0,94,0.00,,---,0.00,VWS V14.01,2013-01-15 16:59:00,
2013-01-15 11:00:00,34.2,32.7,30.14,NW,313,6.0,6.0,94,0.00,,---,0.00,VWS V14.01,2013-01-15 17:00:00,
2013-01-15 11:03:00,34.2,32.7,30.15,NW,324,5.0,6.0,94,0.00,,---,0.00,VWS V14.01,2013-01-15 17:03:00,
2013-01-15 11:04:00,34.2,32.7,30.16,NNW,339,4.0,6.0,94,0.00,,---,0.00,VWS V14.01,2013-01-15 17:04:00,
2013-01-15 11:05:00,34.2,32.7,30.16,NNE,26,2.0,7.0,94,0.00,,---,0.00,VWS V14.01,2013-01-15 17:05:00,
2013-01-15 11:08:00,34.1,32.6,30.17,WNW,295,4.0,7.0,94,0.00,,---,0.00,VWS V14.01,2013-01-15 17:08:00,
2013-01-15 11:09:00,34.1,32.6,30.17,NE,50,0.0,7.0,94,0.00,,---,0.00,VWS V14.01,2013-01-15 17:09:00,
2013-01-15 11:10:00,34.1,32.6,30.17,NNW,336,2.0,7.0,94,0.00,,---,0.00,VWS V14.01,2013-01-15 17:10:00,
2013-01-15 11:14:00,34.2,32.7,30.15,NE,49,3.0,5.0,94,0.00,,---,0.00,VWS V14.01,2013-01-15 17:14:00,
2013-01-15 11:15:00,34.2,32.7,30.15,WNW,299,1.0,6.0,94,0.00,,---,0.00,VWS V14.01,2013-01-15 17:15:00,
2013-01-15 11:19:00,34.1,32.6,30.16,NNW,334,3.0,6.0,94,0.00,,---,0.00,VWS V14.01,2013-01-15 17:19:00,
2013-01-15 11:20:00,34.1,32.6,30.16,NNW,342,5.0,9.0,94,0.01,,---,0.01,VWS V14.01,2013-01-15 17:20:00,
2013-01-15 11:24:00,34.1,32.6,30.15,NE,42,0.0,5.0,94,0.01,,---,0.01,VWS V14.01,2013-01-15 17:24:00,
2013-01-15 11:25:00,34.1,32.6,30.14,North,349,3.0,8.0,94,0.01,,---,0.01,VWS V14.01,2013-01-15 17:25:00,
2013-01-15 11:29:00,34.1,32.6,30.12,NNW,329,3.0,9.0,94,0.01,,---,0.01,VWS V14.01,2013-01-15 17:29:00,
2013-01-15 11:30:00,34.1,32.6,30.12,NW,323,6.0,9.0,94,0.01,,---,0.01,VWS V14.01,2013-01-15 17:30:00,
2013-01-15 11:31:00,34.0,32.5,30.12,NW,320,2.0,9.0,94,0.01,,---,0.01,VWS V14.01,2013-01-15 17:31:00,
2013-01-15 11:34:00,34.1,32.6,30.12,NE,35,7.0,7.0,94,0.01,,---,0.01,VWS V14.01,2013-01-15 17:34:00,
2013-01-15 11:35:00,34.1,32.6,30.12,NNW,331,4.0,7.0,94,0.01,,---,0.01,VWS V14.01,2013-01-15 17:35:00,
2013-01-15 11:36:00,34.1,32.6,30.11,NW,315,8.0,9.0,94,0.01,,---,0.01,VWS V14.01,2013-01-15 17:36:00,
2013-01-15 11:39:00,34.2,32.7,30.10,NNE,23,5.0,9.0,94,0.01,,---,0.01,VWS V14.01,2013-01-15 17:39:00,
2013-01-15 11:40:00,34.2,32.7,30.10,NNW,340,3.0,9.0,94,0.01,,---,0.01,VWS V14.01,2013-01-15 17:40:00,
2013-01-15 11:41:00,34.2,32.7,30.11,WNW,299,1.0,9.0,94,0.01,,---,0.01,VWS V14.01,2013-01-15 17:41:00,
2013-01-15 11:44:00,34.3,32.8,30.11,NNW,344,5.0,10.0,94,0.01,,---,0.01,VWS V14.01,2013-01-15 17:44:00,
2013-01-15 11:45:00,34.3,32.8,30.11,ENE,76,4.0,10.0,94,0.01,,---,0.01,VWS V14.01,2013-01-15 17:45:00,
2013-01-15 11:46:00,34.3,32.8,30.11,NNW,345,3.0,10.0,94,0.01,,---,0.01,VWS V14.01,2013-01-15 17:46:00,
2013-01-15 11:49:00,34.4,32.9,30.10,NNW,340,5.0,10.0,94,0.01,,---,0.01,VWS V14.01,2013-01-15 17:49:00,
2013-01-15 11:50:00,34.4,32.9,30.10,NNE,24,5.0,10.0,94,0.01,,---,0.01,VWS V14.01,2013-01-15 17:50:00,
2013-01-15 11:51:00,34.4,32.9,30.10,NNW,330,4.0,10.0,94,0.01,,---,0.01,VWS V14.01,2013-01-15 17:51:00,
2013-01-15 11:54:00,34.4,32.9,30.11,NW,306,4.0,10.0,94,0.01,,---,0.01,VWS V14.01,2013-01-15 17:54:00,
2013-01-15 11:55:00,34.5,33.0,30.11,NNE,24,2.0,10.0,94,0.01,,---,0.01,VWS V14.01,2013-01-15 17:55:00,
2013-01-15 11:56:00,34.4,32.9,30.10,NNW,344,4.0,10.0,94,0.01,,---,0.01,VWS V14.01,2013-01-15 17:56:00,
2013-01-15 11:59:00,34.5,33.0,30.09,NW,321,4.0,12.0,94,0.01,,---,0.01,VWS V14.01,2013-01-15 17:59:00,
2013-01-15 12:00:00,34.5,33.0,30.09,NW,311,3.0,12.0,94,0.01,,---,0.01,VWS V14.01,2013-01-15 18:00:00,
2013-01-15 12:01:00,34.5,33.0,30.10,NW,313,2.0,12.0,94,0.01,,---,0.01,VWS V14.01,2013-01-15 18:01:00,
2013-01-15 12:04:00,34.5,33.0,30.10,NW,322,4.0,9.0,94,0.01,,---,0.01,VWS V14.01,2013-01-15 18:04:00,
2013-01-15 12:05:00,34.5,33.0,30.10,NW,318,5.0,9.0,94,0.01,,---,0.01,VWS V14.01,2013-01-15 18:05:00,
2013-01-15 12:06:00,34.5,33.0,30.09,NNE,13,5.0,9.0,94,0.01,,---,0.01,VWS V14.01,2013-01-15 18:06:00,
2013-01-15 12:09:00,34.5,33.0,30.09,NE,53,5.0,6.0,94,0.01,,---,0.01,VWS V14.01,2013-01-15 18:09:00,
2013-01-15 12:10:00,34.5,33.0,30.09,NNE,30,2.0,6.0,94,0.01,,---,0.01,VWS V14.01,2013-01-15 18:10:00,
2013-01-15 12:11:00,34.5,33.0,30.09,NNE,26,2.0,6.0,94,0.01,,---,0.01,VWS V14.01,2013-01-15 18:11:00,
2013-01-15 12:15:00,34.6,33.0,30.09,NNE,12,3.0,7.0,94,0.01,,---,0.01,VWS V14.01,2013-01-15 18:15:00,
2013-01-15 12:16:00,34.6,33.0,30.09,NNE,24,2.0,7.0,94,0.01,,---,0.01,VWS V14.01,2013-01-15 18:16:00,
2013-01-15 12:20:00,34.7,33.2,30.09,NW,314,2.0,6.0,94,0.01,,---,0.01,VWS V14.01,2013-01-15 18:20:00,
2013-01-15 12:21:00,34.7,33.2,30.09,North,11,1.0,1.0,94,0.00,,---,0.01,VWS V14.01,2013-01-15 18:21:00,
2013-01-15 12:22:00,34.7,33.2,30.09,NNW,337,5.0,5.0,94,0.00,,---,0.01,VWS V14.01,2013-01-15 18:22:00,
2013-01-15 12:25:00,34.7,33.2,30.09,NNW,340,3.0,6.0,94,0.00,,---,0.01,VWS V14.01,2013-01-15 18:25:00,
2013-01-15 12:26:00,34.7,33.2,30.09,NNE,17,1.0,2.0,94,0.00,,---,0.01,VWS V14.01,2013-01-15 18:26:00,
2013-01-15 12:27:00,34.7,33.2,30.09,NNE,17,1.0,2.0,94,0.00,,---,0.01,VWS V14.01,2013-01-15 18:27:00,
2013-01-15 12:30:00,34.8,33.2,30.08,WNW,303,1.0,4.0,94,0.00,,---,0.01,VWS V14.01,2013-01-15 18:30:00,
2013-01-15 12:31:00,34.8,33.2,30.09,NW,317,1.0,4.0,94,0.00,,---,0.01,VWS V14.01,2013-01-15 18:31:00,
2013-01-15 12:32:00,34.8,33.2,30.09,NW,321,1.0,2.0,94,0.00,,---,0.01,VWS V14.01,2013-01-15 18:32:00,
2013-01-15 12:35:00,34.8,33.2,30.09,NW,318,1.0,5.0,94,0.00,,---,0.01,VWS V14.01,2013-01-15 18:35:00,
2013-01-15 12:36:00,34.8,33.2,30.08,NNE,30,6.0,6.0,94,0.00,,---,0.01,VWS V14.01,2013-01-15 18:36:00,
2013-01-15 12:37:00,34.8,33.2,30.08,North,351,2.0,4.0,94,0.00,,---,0.01,VWS V14.01,2013-01-15 18:37:00,
2013-01-15 12:40:00,34.8,33.2,30.07,NNE,30,3.0,7.0,94,0.00,,---,0.01,VWS V14.01,2013-01-15 18:40:00,
2013-01-15 12:41:00,34.8,33.2,30.07,NE,43,2.0,7.0,94,0.00,,---,0.01,VWS V14.01,2013-01-15 18:41:00,
2013-01-15 12:42:00,34.8,33.2,30.07,NE,54,4.0,6.0,94,0.00,,---,0.01,VWS V14.01,2013-01-15 18:42:00,
2013-01-15 12:45:00,34.9,33.3,30.07,ENE,67,2.0,6.0,94,0.00,,---,0.01,VWS V14.01,2013-01-15 18:45:00,
2013-01-15 12:46:00,34.9,33.3,30.07,WNW,298,0.0,6.0,94,0.00,,---,0.01,VWS V14.01,2013-01-15 18:46:00,
2013-01-15 12:47:00,34.9,33.3,30.08,NNW,327,4.0,6.0,94,0.00,,---,0.01,VWS V14.01,2013-01-15 18:47:00,
2013-01-15 12:50:00,34.9,33.3,30.07,NW,325,1.0,6.0,94,0.00,,---,0.01,VWS V14.01,2013-01-15 18:50:00,
2013-01-15 12:51:00,34.9,33.3,30.07,NNW,331,1.0,6.0,94,0.00,,---,0.01,VWS V14.01,2013-01-15 18:51:00,
2013-01-15 12:52:00,34.9,33.3,30.07,NNW,348,0.0,2.0,94,0.00,,---,0.01,VWS V14.01,2013-01-15 18:52:00,
2013-01-15 12:55:00,34.9,33.3,30.06,NNW,333,1.0,6.0,94,0.00,,---,0.01,VWS V14.01,2013-01-15 18:55:00,
2013-01-15 12:56:00,34.9,33.3,30.06,NNE,16,2.0,4.0,94,0.00,,---,0.01,VWS V14.01,2013-01-15 18:56:00,
2013-01-15 12:57:00,35.0,33.5,30.06,East,91,2.0,4.0,94,0.00,,---,0.01,VWS V14.01,2013-01-15 18:57:00,
2013-01-15 13:00:00,35.0,33.5,30.07,NW,311,5.0,6.0,94,0.00,,---,0.01,VWS V14.01,2013-01-15 19:00:00,
2013-01-15 13:01:00,35.1,33.5,30.07,NE,53,3.0,4.0,94,0.00,,---,0.01,VWS V14.01,2013-01-15 19:01:00,
2013-01-15 13:02:00,35.1,33.5,30.07,NW,310,0.0,4.0,94,0.00,,---,0.01,VWS V14.01,2013-01-15 19:02:00,
2013-01-15 13:03:00,35.1,33.5,30.08,NNE,25,0.0,4.0,94,0.00,,---,0.01,VWS V14.01,2013-01-15 19:03:00,
2013-01-15 13:05:00,35.3,33.8,30.05,ENE,67,3.0,9.0,94,0.04,,---,0.05,VWS V14.01,2013-01-15 19:05:00,
2013-01-15 13:06:00,35.1,33.5,30.07,North,11,2.0,4.0,94,0.00,,---,0.01,VWS V14.01,2013-01-15 19:06:00,
2013-01-15 13:07:00,35.1,33.5,30.07,NW,325,1.0,4.0,94,0.00,,---,0.01,VWS V14.01,2013-01-15 19:07:00,
2013-01-15 13:08:00,35.1,33.5,30.07,NW,321,1.0,4.0,94,0.00,,---,0.01,VWS V14.01,2013-01-15 19:08:00,
2013-01-15 13:10:00,35.3,33.8,30.05,NW,313,5.0,10.0,94,0.04,,---,0.05,VWS V14.01,2013-01-15 19:10:00,
2013-01-15 13:11:00,35.2,33.7,30.06,NNW,328,1.0,4.0,94,0.00,,---,0.01,VWS V14.01,2013-01-15 19:11:00,
2013-01-15 13:12:00,35.2,33.7,30.06,NW,323,1.0,2.0,94,0.00,,---,0.01,VWS V14.01,2013-01-15 19:12:00,
2013-01-15 13:13:00,35.2,33.7,30.07,NW,325,1.0,2.0,94,0.00,,---,0.01,VWS V14.01,2013-01-15 19:13:00,
2013-01-15 13:15:00,35.2,33.7,30.06,NNW,348,6.0,11.0,94,0.05,,---,0.06,VWS V14.01,2013-01-15 19:15:00,
2013-01-15 13:16:00,35.3,33.8,30.07,WNW,303,1.0,5.0,94,0.00,,---,0.01,VWS V14.01,2013-01-15 19:16:00,
2013-01-15 13:17:00,35.3,33.8,30.07,NNW,337,3.0,4.0,94,0.00,,---,0.01,VWS V14.01,2013-01-15 19:17:00,
2013-01-15 13:18:00,35.2,33.7,30.07,NW,325,3.0,4.0,94,0.00,,---,0.01,VWS V14.01,2013-01-15 19:18:00,
2013-01-15 13:20:00,35.1,33.5,30.06,NW,325,5.0,10.0,94,0.07,,---,0.08,VWS V14.01,2013-01-15 19:20:00,
2013-01-15 13:21:00,35.3,33.8,30.07,NNW,335,3.0,6.0,94,0.00,,---,0.01,VWS V14.01,2013-01-15 19:21:00,
2013-01-15 13:22:00,35.3,33.8,30.07,NW,310,2.0,3.0,94,0.00,,---,0.01,VWS V14.01,2013-01-15 19:22:00,
2013-01-15 13:23:00,35.3,33.8,30.07,North,350,5.0,5.0,94,0.00,,---,0.01,VWS V14.01,2013-01-15 19:23:00,
2013-01-15 13:25:00,35.2,33.7,30.08,NNE,19,4.0,10.0,94,0.07,,---,0.08,VWS V14.01,2013-01-15 19:25:00,
2013-01-15 13:26:00,35.3,33.8,30.07,NW,313,4.0,6.0,94,0.00,,---,0.01,VWS V14.01,2013-01-15 19:26:00,
2013-01-15 13:27:00,35.3,33.8,30.07,NNE,19,3.0,5.0,94,0.00,,---,0.01,VWS V14.01,2013-01-15 19:27:00,
2013-01-15 13:28:00,35.2,33.7,30.06,ENE,69,3.0,5.0,94,0.00,,---,0.01,VWS V14.01,2013-01-15 19:28:00,
2013-01-15 13:30:00,35.1,33.5,30.06,NW,319,10.0,11.0,94,0.08,,---,0.09,VWS V14.01,2013-01-15 19:30:00,
2013-01-15 13:31:00,35.3,33.8,30.05,NNW,328,1.0,5.0,94,0.01,,---,0.02,VWS V14.01,2013-01-15 19:31:00,
2013-01-15 13:32:00,35.3,33.8,30.04,NW,311,2.0,4.0,94,0.01,,---,0.02,VWS V14.01,2013-01-15 19:32:00,
2013-01-15 13:33:00,35.3,33.8,30.03,NE,56,3.0,9.0,94,0.01,,---,0.02,VWS V14.01,2013-01-15 19:33:00,
2013-01-15 13:35:00,35.0,33.5,30.07,NNW,329,4.0,12.0,94,0.09,,---,0.11,VWS V14.01,2013-01-15 19:35:00,
2013-01-15 13:36:00,35.3,33.8,30.02,NNE,17,3.0,9.0,94,0.01,,---,0.02,VWS V14.01,2013-01-15 19:36:00,
2013-01-15 13:37:00,35.3,33.8,30.03,NNE,19,2.0,4.0,94,0.01,,---,0.02,VWS V14.01,2013-01-15 19:37:00,
2013-01-15 13:38:00,35.3,33.8,30.03,ENE,59,5.0,5.0,94,0.01,,---,0.02,VWS V14.01,2013-01-15 19:38:00,
2013-01-15 13:40:00,34.9,33.3,30.07,WSW,252,2.0,10.0,94,0.09,,---,0.11,VWS V14.01,2013-01-15 19:40:00,
2013-01-15 13:41:00,35.3,33.8,30.04,NNE,32,2.0,6.0,94,0.02,,---,0.03,VWS V14.01,2013-01-15 19:41:00,
2013-01-15 13:42:00,35.3,33.8,30.04,NNE,15,5.0,6.0,94,0.02,,---,0.03,VWS V14.01,2013-01-15 19:42:00,
2013-01-15 13:43:00,35.3,33.8,30.04,NNW,342,4.0,6.0,94,0.02,,---,0.03,VWS V14.01,2013-01-15 19:43:00,
2013-01-15 13:45:00,34.9,33.3,30.06,NE,49,4.0,10.0,94,0.08,,---,0.11,VWS V14.01,2013-01-15 19:45:00,
2013-01-15 13:46:00,35.3,33.8,30.03,NW,325,4.0,10.0,94,0.02,,---,0.03,VWS V14.01,2013-01-15 19:46:00,
2013-01-15 13:47:00,35.3,33.8,30.04,NNW,331,3.0,7.0,94,0.02,,---,0.03,VWS V14.01,2013-01-15 19:47:00,
2013-01-15 13:48:00,35.3,33.8,30.04,WNW,296,4.0,7.0,94,0.02,,---,0.03,VWS V14.01,2013-01-15 19:48:00,
2013-01-15 13:50:00,34.8,33.2,30.07,NNW,346,4.0,10.0,94,0.10,,---,0.13,VWS V14.01,2013-01-15 19:50:00,
2013-01-15 13:51:00,35.3,33.8,30.05,NNW,344,5.0,7.0,94,0.03,,---,0.04,VWS V14.01,2013-01-15 19:51:00,
2013-01-15 13:52:00,35.3,33.8,30.05,WNW,288,4.0,6.0,94,0.03,,---,0.04,VWS V14.01,2013-01-15 19:52:00,
2013-01-15 13:53:00,35.3,33.8,30.05,NNW,329,7.0,7.0,94,0.03,,---,0.04,VWS V14.01,2013-01-15 19:53:00,
2013-01-15 13:55:00,34.8,33.2,30.09,NNW,345,9.0,10.0,94,0.11,,---,0.15,VWS V14.01,2013-01-15 19:55:00,
2013-01-15 13:56:00,35.3,33.8,30.06,WNW,292,5.0,7.0,94,0.03,,---,0.04,VWS V14.01,2013-01-15 19:56:00,
2013-01-15 13:57:00,35.3,33.8,30.06,NW,326,3.0,7.0,94,0.03,,---,0.04,VWS V14.01,2013-01-15 19:57:00,
2013-01-15 13:58:00,35.3,33.8,30.06,NNW,328,3.0,7.0,94,0.03,,---,0.04,VWS V14.01,2013-01-15 19:58:00,
2013-01-15 14:00:00,34.8,33.2,30.10,NNW,328,3.0,12.0,94,0.15,,---,0.19,VWS V14.01,2013-01-15 20:00:00,
2013-01-15 14:01:00,35.3,33.8,30.06,NNW,329,7.0,7.0,94,0.03,,---,0.04,VWS V14.01,2013-01-15 20:01:00,
2013-01-15 14:02:00,35.3,33.8,30.06,NW,315,2.0,9.0,94,0.03,,---,0.04,VWS V14.01,2013-01-15 20:02:00,
2013-01-15 14:03:00,35.3,33.8,30.06,NW,314,4.0,9.0,94,0.03,,---,0.04,VWS V14.01,2013-01-15 20:03:00,
2013-01-15 14:04:00,35.3,33.8,30.06,NW,323,2.0,9.0,94,0.03,,---,0.04,VWS V14.01,2013-01-15 20:04:00,
2013-01-15 14:05:00,34.7,33.2,30.10,NNE,22,5.0,11.0,94,0.18,,---,0.22,VWS V14.01,2013-01-15 20:05:00,
2013-01-15 14:06:00,35.3,33.8,30.05,NW,326,4.0,6.0,94,0.04,,---,0.05,VWS V14.01,2013-01-15 20:06:00,
2013-01-15 14:07:00,35.3,34.0,30.06,NW,311,3.0,6.0,95,0.04,,---,0.05,VWS V14.01,2013-01-15 20:07:00,
2013-01-15 14:08:00,35.3,33.8,30.06,NNW,333,4.0,7.0,94,0.04,,---,0.05,VWS V14.01,2013-01-15 20:08:00,
2013-01-15 14:09:00,35.3,33.8,30.06,North,351,3.0,7.0,94,0.04,,---,0.05,VWS V14.01,2013-01-15 20:09:00,
2013-01-15 14:10:00,34.6,33.0,30.11,NNW,348,4.0,11.0,94,0.19,,---,0.24,VWS V14.01,2013-01-15 20:10:00,
2013-01-15 14:12:00,35.2,33.7,30.05,NW,322,4.0,6.0,94,0.04,,---,0.05,VWS V14.01,2013-01-15 20:12:00,
2013-01-15 14:13:00,35.2,33.7,30.06,NW,313,7.0,11.0,94,0.05,,---,0.06,VWS V14.01,2013-01-15 20:13:00,
2013-01-15 14:14:00,35.2,33.7,30.06,NW,304,3.0,11.0,94,0.05,,---,0.06,VWS V14.01,2013-01-15 20:14:00,
2013-01-15 14:15:00,34.5,33.0,30.10,NNW,335,7.0,9.0,94,0.21,,---,0.26,VWS V14.01,2013-01-15 20:15:00,
2013-01-15 14:17:00,35.2,33.7,30.05,NNW,341,3.0,6.0,94,0.05,,---,0.06,VWS V14.01,2013-01-15 20:17:00,
2013-01-15 14:18:00,35.2,33.7,30.05,NNW,333,3.0,8.0,94,0.05,,---,0.06,VWS V14.01,2013-01-15 20:18:00,
2013-01-15 14:19:00,35.2,33.7,30.05,NW,317,4.0,8.0,94,0.06,,---,0.07,VWS V14.01,2013-01-15 20:19:00,
2013-01-15 14:20:00,34.4,32.9,30.10,NW,309,3.0,11.0,94,0.22,,---,0.28,VWS V14.01,2013-01-15 20:20:00,
2013-01-15 14:22:00,35.2,33.7,30.06,NW,307,5.0,7.0,94,0.07,,---,0.08,VWS V14.01,2013-01-15 20:22:00,
2013-01-15 14:23:00,35.1,33.5,30.06,NNW,348,7.0,7.0,94,0.07,,---,0.08,VWS V14.01,2013-01-15 20:23:00,
2013-01-15 14:24:00,35.1,33.5,30.06,NW,320,5.0,10.0,94,0.07,,---,0.08,VWS V14.01,2013-01-15 20:24:00,
2013-01-15 14:25:00,34.4,32.9,30.11,NNW,333,5.0,11.0,94,0.22,,---,0.30,VWS V14.01,2013-01-15 20:25:00,
2013-01-15 14:27:00,35.2,33.7,30.09,NNW,333,4.0,5.0,94,0.07,,---,0.08,VWS V14.01,2013-01-15 20:27:00,
2013-01-15 14:28:00,35.2,33.9,30.08,NNW,337,6.0,7.0,95,0.08,,---,0.09,VWS V14.01,2013-01-15 20:28:00,
2013-01-15 14:29:00,35.2,33.9,30.07,NNW,347,2.0,7.0,95,0.08,,---,0.09,VWS V14.01,2013-01-15 20:29:00,
2013-01-15 14:30:00,34.5,33.0,30.11,WNW,294,3.0,9.0,94,0.24,,---,0.32,VWS V14.01,2013-01-15 20:30:00,
2013-01-15 14:32:00,35.1,33.5,30.07,NW,311,6.0,12.0,94,0.08,,---,0.10,VWS V14.01,2013-01-15 20:32:00,
2013-01-15 14:33:00,35.1,33.5,30.08,NW,310,3.0,12.0,94,0.08,,---,0.10,VWS V14.01,2013-01-15 20:33:00,
2013-01-15 14:34:00,35.1,33.5,30.07,NE,53,3.0,12.0,94,0.08,,---,0.10,VWS V14.01,2013-01-15 20:34:00,
2013-01-15 14:35:00,34.5,33.0,30.11,NNW,331,6.0,11.0,94,0.24,,---,0.33,VWS V14.01,2013-01-15 20:35:00,
2013-01-15 14:37:00,35.0,33.5,30.07,NW,315,4.0,7.0,94,0.09,,---,0.11,VWS V14.01,2013-01-15 20:37:00,
2013-01-15 14:38:00,35.0,33.5,30.07,NNW,335,5.0,7.0,94,0.09,,---,0.11,VWS V14.01,2013-01-15 20:38:00,
2013-01-15 14:39:00,35.0,33.5,30.08,NW,321,9.0,9.0,94,0.09,,---,0.11,VWS V14.01,2013-01-15 20:39:00,
2013-01-15 14:40:00,34.4,32.9,30.12,NW,323,6.0,12.0,94,0.23,,---,0.34,VWS V14.01,2013-01-15 20:40:00,
2013-01-15 14:42:00,34.9,33.3,30.08,NNW,329,3.0,4.0,94,0.08,,---,0.11,VWS V14.01,2013-01-15 20:42:00,
2013-01-15 14:43:00,34.9,33.3,30.08,NNW,331,5.0,10.0,94,0.08,,---,0.11,VWS V14.01,2013-01-15 20:43:00,
2013-01-15 14:44:00,34.9,33.3,30.07,NNW,335,5.0,10.0,94,0.08,,---,0.11,VWS V14.01,2013-01-15 20:44:00,
2013-01-15 14:45:00,34.9,33.3,30.07,NNW,335,6.0,10.0,94,0.08,,---,0.11,VWS V14.01,2013-01-15 20:45:00,
2013-01-15 14:47:00,34.9,33.3,30.07,NW,319,4.0,4.0,94,0.09,,---,0.12,VWS V14.01,2013-01-15 20:47:00,
2013-01-15 14:48:00,34.9,33.3,30.08,NW,317,4.0,9.0,94,0.09,,---,0.12,VWS V14.01,2013-01-15 20:48:00,
2013-01-15 14:49:00,34.9,33.3,30.08,NE,44,4.0,9.0,94,0.09,,---,0.12,VWS V14.01,2013-01-15 20:49:00,
2013-01-15 14:50:00,34.9,33.3,30.08,NW,313,3.0,9.0,94,0.09,,---,0.12,VWS V14.01,2013-01-15 20:50:00,
2013-01-15 14:52:00,34.8,33.2,30.07,NNE,15,5.0,9.0,94,0.09,,---,0.13,VWS V14.01,2013-01-15 20:52:00,
2013-01-15 14:53:00,34.8,33.2,30.08,NNW,336,3.0,9.0,94,0.09,,---,0.13,VWS V14.01,2013-01-15 20:53:00,
2013-01-15 14:54:00,34.8,33.2,30.09,NW,315,2.0,9.0,94,0.10,,---,0.14,VWS V14.01,2013-01-15 20:54:00,
2013-01-15 14:55:00,34.8,33.2,30.09,NNW,342,5.0,10.0,94,0.10,,---,0.14,VWS V14.01,2013-01-15 20:55:00,
2013-01-15 14:57:00,34.8,33.2,30.10,NW,324,4.0,9.0,94,0.11,,---,0.15,VWS V14.01,2013-01-15 20:57:00,
2013-01-15 14:58:00,34.8,33.2,30.10,NNW,340,7.0,12.0,94,0.12,,---,0.16,VWS V14.01,2013-01-15 20:58:00,
2013-01-15 14:59:00,34.8,33.2,30.10,NNW,331,6.0,12.0,94,0.12,,---,0.16,VWS V14.01,2013-01-15 20:59:00,
2013-01-15 15:00:00,34.8,33.2,30.10,NW,317,6.0,12.0,94,0.14,,---,0.18,VWS V14.01,2013-01-15 21:00:00,
2013-01-15 15:02:00,34.7,33.2,30.10,NNW,340,3.0,5.0,94,0.16,,---,0.20,VWS V14.01,2013-01-15 21:02:00,
2013-01-15 15:03:00,34.7,33.2,30.10,NW,317,6.0,7.0,94,0.16,,---,0.20,VWS V14.01,2013-01-15 21:03:00,
2013-01-15 15:04:00,34.7,33.2,30.10,North,5,8.0,11.0,94,0.17,,---,0.21,VWS V14.01,2013-01-15 21:04:00,
2013-01-15 15:05:00,34.7,33.2,30.10,NNW,338,4.0,11.0,94,0.17,,---,0.21,VWS V14.01,2013-01-15 21:05:00,
2013-01-15 15:07:00,34.7,33.2,30.10,NW,307,3.0,7.0,94,0.17,,---,0.22,VWS V14.01,2013-01-15 21:07:00,
2013-01-15 15:08:00,34.7,33.2,30.10,NW,324,5.0,11.0,94,0.18,,---,0.23,VWS V14.01,2013-01-15 21:08:00,
2013-01-15 15:09:00,34.6,33.0,30.11,NNW,346,5.0,11.0,94,0.18,,---,0.23,VWS V14.01,2013-01-15 21:09:00,
2013-01-15 15:10:00,34.6,33.0,30.11,NW,326,7.0,11.0,94,0.18,,---,0.23,VWS V14.01,2013-01-15 21:10:00,
2013-01-15 15:12:00,34.5,33.0,30.11,NNE,16,3.0,6.0,94,0.19,,---,0.24,VWS V14.01,2013-01-15 21:12:00,
2013-01-15 15:13:00,34.5,33.0,30.11,WNW,299,1.0,8.0,94,0.20,,---,0.25,VWS V14.01,2013-01-15 21:13:00,
2013-01-15 15:14:00,34.5,33.0,30.10,NW,315,5.0,9.0,94,0.21,,---,0.26,VWS V14.01,2013-01-15 21:14:00,
2013-01-15 15:15:00,34.5,33.0,30.10,NE,39,8.0,9.0,94,0.21,,---,0.26,VWS V14.01,2013-01-15 21:15:00,
2013-01-15 15:17:00,34.5,33.0,30.10,NW,306,3.0,9.0,94,0.21,,---,0.27,VWS V14.01,2013-01-15 21:17:00,
2013-01-15 15:18:00,34.4,32.9,30.09,NNW,344,4.0,9.0,94,0.21,,---,0.27,VWS V14.01,2013-01-15 21:18:00,
2013-01-15 15:19:00,34.5,33.0,30.10,NW,313,5.0,11.0,94,0.22,,---,0.28,VWS V14.01,2013-01-15 21:19:00,
2013-01-15 15:20:00,34.4,32.9,30.10,NW,323,5.0,11.0,94,0.22,,---,0.28,VWS V14.01,2013-01-15 21:20:00,
2013-01-15 15:22:00,34.5,33.0,30.11,NW,324,5.0,7.0,94,0.21,,---,0.29,VWS V14.01,2013-01-15 21:22:00,
2013-01-15 15:23:00,34.4,32.9,30.11,NW,321,3.0,7.0,94,0.21,,---,0.29,VWS V14.01,2013-01-15 21:23:00,
2013-01-15 15:25:00,34.4,32.9,30.11,NW,313,5.0,11.0,94,0.21,,---,0.29,VWS V14.01,2013-01-15 21:25:00,
2013-01-15 15:26:00,34.4,32.9,30.11,NW,320,5.0,11.0,94,0.22,,---,0.30,VWS V14.01,2013-01-15 21:26:00,
2013-01-15 15:27:00,34.5,33.0,30.11,NNW,346,6.0,9.0,94,0.22,,---,0.30,VWS V14.01,2013-01-15 21:27:00,
2013-01-15 15:29:00,34.5,33.0,30.11,NW,315,4.0,9.0,94,0.23,,---,0.31,VWS V14.01,2013-01-15 21:29:00,
2013-01-15 15:30:00,34.4,32.9,30.11,NNE,17,6.0,9.0,94,0.23,,---,0.31,VWS V14.01,2013-01-15 21:30:00,
2013-01-15 15:31:00,34.5,33.0,30.11,NNW,328,2.0,9.0,94,0.23,,---,0.31,VWS V14.01,2013-01-15 21:31:00,
2013-01-15 15:32:00,34.5,33.0,30.11,NW,304,9.0,10.0,94,0.23,,---,0.32,VWS V14.01,2013-01-15 21:32:00,
2013-01-15 15:34:00,34.5,33.0,30.12,NNE,19,7.0,10.0,94,0.23,,---,0.32,VWS V14.01,2013-01-15 21:34:00,
2013-01-15 15:35:00,34.5,33.0,30.11,NW,315,2.0,10.0,94,0.24,,---,0.33,VWS V14.01,2013-01-15 21:35:00,
2013-01-15 15:36:00,34.5,33.0,30.11,NNW,331,6.0,11.0,94,0.24,,---,0.33,VWS V14.01,2013-01-15 21:36:00,
2013-01-15 15:37:00,34.4,32.9,30.11,NW,325,6.0,9.0,94,0.22,,---,0.33,VWS V14.01,2013-01-15 21:37:00,
2013-01-15 15:39:00,34.4,32.9,30.11,NNW,335,6.0,9.0,94,0.23,,---,0.34,VWS V14.01,2013-01-15 21:39:00,
2013-01-15 15:40:00,34.4,32.9,30.11,NNW,338,4.0,12.0,94,0.23,,---,0.34,VWS V14.01,2013-01-15 21:40:00,
2013-01-15 15:41:00,34.4,32.9,30.12,NW,323,6.0,12.0,94,0.23,,---,0.34,VWS V14.01,2013-01-15 21:41:00,
2013-01-15 15:42:00,34.4,32.9,30.12,NNE,20,4.0,6.0,94,0.24,,---,0.35,VWS V14.01,2013-01-15 21:42:00,
2013-01-15 15:44:00,34.4,32.9,30.11,North,350,11.0,11.0,94,0.25,,---,0.36,VWS V14.01,2013-01-15 21:44:00,
2013-01-15 15:45:00,34.4,32.9,30.11,NNE,22,4.0,11.0,94,0.25,,---,0.36,VWS V14.01,2013-01-15 21:45:00,
2013-01-15 15:46:00,34.4,32.9,30.10,NNW,344,13.0,13.0,94,0.25,,---,0.36,VWS V14.01,2013-01-15 21:46:00,
2013-01-15 15:47:00,34.3,32.8,30.10,NNW,339,5.0,13.0,94,0.26,,---,0.37,VWS V14.01,2013-01-15 21:47:00,
2013-01-15 15:49:00,34.3,32.8,30.10,NW,306,9.0,13.0,94,0.27,,---,0.38,VWS V14.01,2013-01-15 21:49:00,
2013-01-15 15:50:00,34.3,32.8,30.10,NNW,344,4.0,13.0,94,0.28,,---,0.39,VWS V14.01,2013-01-15 21:50:00,
2013-01-15 15:52:00,34.3,32.8,30.10,NNE,32,6.0,6.0,94,0.26,,---,0.39,VWS V14.01,2013-01-15 21:52:00,
2013-01-15 15:53:00,34.3,32.8,30.09,NW,325,6.0,7.0,94,0.27,,---,0.40,VWS V14.01,2013-01-15 21:53:00,
2013-01-15 15:54:00,34.3,32.8,30.10,NNE,13,5.0,11.0,94,0.27,,---,0.40,VWS V14.01,2013-01-15 21:54:00,
2013-01-15 15:55:00,34.2,32.7,30.10,NNW,347,4.0,11.0,94,0.28,,---,0.41,VWS V14.01,2013-01-15 21:55:00,
2013-01-15 15:57:00,34.2,32.7,30.10,NNW,341,7.0,11.0,94,0.26,,---,0.41,VWS V14.01,2013-01-15 21:57:00,
2013-01-15 15:58:00,34.2,32.7,30.10,NNW,330,2.0,11.0,94,0.26,,---,0.41,VWS V14.01,2013-01-15 21:58:00,
2013-01-15 15:59:00,34.2,32.7,30.10,North,11,7.0,11.0,94,0.26,,---,0.41,VWS V14.01,2013-01-15 21:59:00,
2013-01-15 16:00:00,34.3,33.0,30.08,NW,317,4.0,6.0,95,0.07,,---,0.48,VWS V14.01,2013-01-15 22:00:00,
2013-01-15 16:01:00,34.2,32.7,30.10,NW,315,3.0,11.0,94,0.27,,---,0.42,VWS V14.01,2013-01-15 22:01:00,
2013-01-15 16:02:00,34.2,32.7,30.09,NNE,28,9.0,10.0,94,0.23,,---,0.42,VWS V14.01,2013-01-15 22:02:00,
2013-01-15 16:03:00,34.2,32.7,30.09,NNE,12,5.0,12.0,94,0.23,,---,0.42,VWS V14.01,2013-01-15 22:03:00,
2013-01-15 16:04:00,34.2,32.7,30.08,ENE,65,5.0,12.0,94,0.23,,---,0.42,VWS V14.01,2013-01-15 22:04:00,
2013-01-15 16:05:00,34.3,33.0,30.08,NW,305,5.0,6.0,95,0.06,,---,0.48,VWS V14.01,2013-01-15 22:05:00,
2013-01-15 16:06:00,34.2,32.7,30.07,NNW,344,4.0,12.0,94,0.24,,---,0.43,VWS V14.01,2013-01-15 22:06:00,
2013-01-15 16:07:00,34.2,32.7,30.07,NE,46,3.0,4.0,94,0.21,,---,0.43,VWS V14.01,2013-01-15 22:07:00,
2013-01-15 16:08:00,34.1,32.6,30.07,NW,314,4.0,4.0,94,0.21,,---,0.43,VWS V14.01,2013-01-15 22:08:00,
2013-01-15 16:09:00,34.1,32.6,30.06,NNE,26,3.0,9.0,94,0.21,,---,0.43,VWS V14.01,2013-01-15 22:09:00,
2013-01-15 16:10:00,34.4,33.1,30.11,WNW,283,3.0,6.0,95,0.05,,---,0.48,VWS V14.01,2013-01-15 22:10:00,
2013-01-15 16:11:00,34.1,32.6,30.07,WNW,303,3.0,12.0,94,0.21,,---,0.43,VWS V14.01,2013-01-15 22:11:00,
2013-01-15 16:12:00,34.1,32.6,30.07,NNE,19,3.0,6.0,94,0.20,,---,0.44,VWS V14.01,2013-01-15 22:12:00,
2013-01-15 16:13:00,34.1,32.6,30.07,ENE,76,5.0,9.0,94,0.20,,---,0.44,VWS V14.01,2013-01-15 22:13:00,
2013-01-15 16:14:00,34.1,32.6,30.08,NW,317,3.0,9.0,94,0.20,,---,0.44,VWS V14.01,2013-01-15 22:14:00,
2013-01-15 16:15:00,34.5,33.2,30.14,NNE,24,1.0,6.0,95,0.08,,---,0.51,VWS V14.01,2013-01-15 22:15:00,
2013-01-15 16:16:00,34.1,32.8,30.08,NNW,336,4.0,9.0,95,0.20,,---,0.44,VWS V14.01,2013-01-15 22:16:00,
2013-01-15 16:17:00,34.1,32.8,30.08,North,350,3.0,9.0,95,0.18,,---,0.44,VWS V14.01,2013-01-15 22:17:00,
2013-01-15 16:18:00,34.1,32.8,30.07,NNW,340,2.0,9.0,95,0.18,,---,0.44,VWS V14.01,2013-01-15 22:18:00,
2013-01-15 16:19:00,34.2,32.9,30.07,NNE,32,4.0,10.0,95,0.18,,---,0.44,VWS V14.01,2013-01-15 22:19:00,
2013-01-15 16:20:00,34.5,33.2,30.14,NW,317,3.0,9.0,95,0.12,,---,0.56,VWS V14.01,2013-01-15 22:20:00,
2013-01-15 16:21:00,34.1,32.6,30.06,East,89,5.0,10.0,94,0.18,,---,0.44,VWS V14.01,2013-01-15 22:21:00,
2013-01-15 16:22:00,34.1,32.8,30.06,East,81,2.0,5.0,95,0.16,,---,0.44,VWS V14.01,2013-01-15 22:22:00,
2013-01-15 16:23:00,34.1,32.8,30.06,West,273,2.0,6.0,95,0.17,,---,0.45,VWS V14.01,2013-01-15 22:23:00,
2013-01-15 16:25:00,34.1,32.8,30.05,NNE,26,4.0,9.0,95,0.17,,---,0.45,VWS V14.01,2013-01-15 22:25:00,
2013-01-15 16:26:00,34.2,32.9,30.04,NW,311,3.0,10.0,95,0.17,,---,0.45,VWS V14.01,2013-01-15 22:26:00,
2013-01-15 16:27:00,34.2,32.9,30.03,NNW,331,2.0,10.0,95,0.15,,---,0.45,VWS V14.01,2013-01-15 22:27:00,
2013-01-15 16:29:00,34.2,32.9,30.06,NE,35,6.0,10.0,95,0.15,,---,0.45,VWS V14.01,2013-01-15 22:29:00,
2013-01-15 16:30:00,34.2,32.9,30.07,NNW,333,2.0,10.0,95,0.16,,---,0.46,VWS V14.01,2013-01-15 22:30:00,
2013-01-15 16:31:00,34.3,33.0,30.07,NW,317,5.0,6.0,95,0.14,,---,0.46,VWS V14.01,2013-01-15 22:31:00,
2013-01-15 16:32:00,34.3,33.0,30.07,NNE,31,6.0,6.0,95,0.14,,---,0.46,VWS V14.01,2013-01-15 22:32:00,
2013-01-15 16:34:00,34.3,33.0,30.06,NW,314,3.0,6.0,95,0.14,,---,0.46,VWS V14.01,2013-01-15 22:34:00,
2013-01-15 16:35:00,34.3,33.0,30.06,NW,318,2.0,6.0,95,0.14,,---,0.46,VWS V14.01,2013-01-15 22:35:00,
2013-01-15 16:37:00,34.3,33.0,30.07,NW,312,4.0,6.0,95,0.13,,---,0.46,VWS V14.01,2013-01-15 22:37:00,
2013-01-15 16:39:00,34.3,33.0,30.08,NW,321,2.0,6.0,95,0.13,,---,0.46,VWS V14.01,2013-01-15 22:39:00,
2013-01-15 16:40:00,34.3,33.0,30.08,NNE,26,4.0,6.0,95,0.13,,---,0.46,VWS V14.01,2013-01-15 22:40:00,
2013-01-15 16:42:00,34.3,33.0,30.08,NW,326,3.0,5.0,95,0.12,,---,0.46,VWS V14.01,2013-01-15 22:42:00,
2013-01-15 16:44:00,34.3,33.0,30.08,NW,322,4.0,5.0,95,0.12,,---,0.46,VWS V14.01,2013-01-15 22:44:00,
2013-01-15 16:45:00,34.3,33.0,30.08,NNW,342,2.0,5.0,95,0.12,,---,0.46,VWS V14.01,2013-01-15 22:45:00,
2013-01-15 16:47:00,34.3,33.0,30.08,North,355,3.0,4.0,95,0.10,,---,0.46,VWS V14.01,2013-01-15 22:47:00,
2013-01-15 16:49:00,34.3,33.0,30.08,NW,313,4.0,4.0,95,0.11,,---,0.47,VWS V14.01,2013-01-15 22:49:00,
2013-01-15 16:50:00,34.3,33.0,30.08,NW,317,1.0,4.0,95,0.11,,---,0.47,VWS V14.01,2013-01-15 22:50:00,
2013-01-15 16:52:00,34.3,33.0,30.07,NNE,29,2.0,3.0,95,0.08,,---,0.47,VWS V14.01,2013-01-15 22:52:00,
2013-01-15 16:54:00,34.3,33.0,30.07,NNE,26,3.0,5.0,95,0.08,,---,0.47,VWS V14.01,2013-01-15 22:54:00,
2013-01-15 16:55:00,34.3,33.0,30.08,NNW,329,3.0,5.0,95,0.08,,---,0.47,VWS V14.01,2013-01-15 22:55:00,
2013-01-15 16:57:00,34.3,33.0,30.08,NW,310,1.0,6.0,95,0.06,,---,0.47,VWS V14.01,2013-01-15 22:57:00,
2013-01-15 16:58:00,34.3,33.0,30.08,NNE,29,2.0,6.0,95,0.06,,---,0.47,VWS V14.01,2013-01-15 22:58:00,
2013-01-15 16:59:00,34.3,33.0,30.08,NNW,340,2.0,6.0,95,0.07,,---,0.48,VWS V14.01,2013-01-15 22:59:00,
2013-01-15 17:00:00,34.3,33.0,30.07,NNW,338,4.0,6.0,95,0.07,,---,0.48,VWS V14.01,2013-01-15 23:00:00,
2013-01-15 17:02:00,34.3,33.0,30.08,NW,326,4.0,5.0,95,0.06,,---,0.48,VWS V14.01,2013-01-15 23:02:00,
2013-01-15 17:03:00,34.3,33.0,30.08,NNW,334,2.0,5.0,95,0.06,,---,0.48,VWS V14.01,2013-01-15 23:03:00,
2013-01-15 17:04:00,34.3,33.0,30.08,North,349,2.0,5.0,95,0.06,,---,0.48,VWS V14.01,2013-01-15 23:04:00,
2013-01-15 17:05:00,34.3,33.0,30.08,NW,324,2.0,5.0,95,0.06,,---,0.48,VWS V14.01,2013-01-15 23:05:00,
2013-01-15 17:07:00,34.3,33.0,30.08,NNW,334,5.0,6.0,95,0.05,,---,0.48,VWS V14.01,2013-01-15 23:07:00,
2013-01-15 17:08:00,34.3,33.0,30.08,NNW,333,3.0,6.0,95,0.05,,---,0.48,VWS V14.01,2013-01-15 23:08:00,
2013-01-15 17:09:00,34.3,33.0,30.09,NNW,337,2.0,6.0,95,0.05,,---,0.48,VWS V14.01,2013-01-15 23:09:00,
2013-01-15 17:10:00,34.4,33.1,30.10,NW,323,0.0,6.0,95,0.05,,---,0.48,VWS V14.01,2013-01-15 23:10:00,
2013-01-15 17:12:00,34.4,33.1,30.13,NNW,336,3.0,5.0,95,0.06,,---,0.49,VWS V14.01,2013-01-15 23:12:00,
2013-01-15 17:13:00,34.4,33.1,30.13,NW,323,5.0,5.0,95,0.06,,---,0.49,VWS V14.01,2013-01-15 23:13:00,
2013-01-15 17:14:00,34.5,33.2,30.14,NNE,16,4.0,5.0,95,0.06,,---,0.49,VWS V14.01,2013-01-15 23:14:00,
2013-01-15 17:15:00,34.5,33.2,30.14,NW,319,1.0,5.0,95,0.07,,---,0.50,VWS V14.01,2013-01-15 23:15:00,
2013-01-15 17:18:00,34.5,33.2,30.14,NNW,338,3.0,5.0,95,0.08,,---,0.52,VWS V14.01,2013-01-15 23:18:00,
2013-01-15 17:19:00,34.5,33.2,30.14,NW,326,3.0,6.0,95,0.10,,---,0.54,VWS V14.01,2013-01-15 23:19:00,
2013-01-15 17:20:00,34.5,33.2,30.09,WNW,303,3.0,5.0,95,0.14,,---,0.65,VWS V14.01,2013-01-15 23:20:00,
2013-01-15 17:21:00,34.5,33.2,30.14,WNW,302,3.0,9.0,95,0.11,,---,0.55,VWS V14.01,2013-01-15 23:21:00,
2013-01-15 17:23:00,34.4,33.1,30.14,WNW,288,10.0,10.0,95,0.13,,---,0.57,VWS V14.01,2013-01-15 23:23:00,
2013-01-15 17:24:00,34.4,33.1,30.14,NW,313,1.0,10.0,95,0.14,,---,0.58,VWS V14.01,2013-01-15 23:24:00,
2013-01-15 17:25:00,34.5,33.2,30.08,NNW,344,3.0,5.0,95,0.09,,---,0.65,VWS V14.01,2013-01-15 23:25:00,
2013-01-15 17:26:00,34.4,32.9,30.14,NNW,346,5.0,10.0,94,0.15,,---,0.59,VWS V14.01,2013-01-15 23:26:00,
2013-01-15 17:28:00,34.4,33.1,30.13,NNW,346,5.0,7.0,95,0.14,,---,0.59,VWS V14.01,2013-01-15 23:28:00,
2013-01-15 17:29:00,34.4,33.1,30.13,NW,307,5.0,7.0,95,0.15,,---,0.60,VWS V14.01,2013-01-15 23:29:00,
2013-01-15 17:30:00,34.4,33.1,30.06,NW,312,1.0,6.0,95,0.06,,---,0.65,VWS V14.01,2013-01-15 23:30:00,
2013-01-15 17:31:00,34.3,32.8,30.13,NNW,329,1.0,7.0,94,0.15,,---,0.60,VWS V14.01,2013-01-15 23:31:00,
2013-01-15 17:33:00,34.3,33.0,30.12,NNW,335,0.0,5.0,95,0.15,,---,0.61,VWS V14.01,2013-01-15 23:33:00,
2013-01-15 17:35:00,34.3,33.0,30.12,WNW,288,3.0,5.0,95,0.15,,---,0.61,VWS V14.01,2013-01-15 23:35:00,
2013-01-15 17:36:00,34.3,33.0,30.11,NNW,340,6.0,7.0,95,0.15,,---,0.61,VWS V14.01,2013-01-15 23:36:00,
2013-01-15 17:38:00,34.3,33.0,30.09,North,5,5.0,7.0,95,0.16,,---,0.62,VWS V14.01,2013-01-15 23:38:00,
2013-01-15 17:40:00,34.3,33.0,30.08,NNE,15,10.0,12.0,95,0.16,,---,0.62,VWS V14.01,2013-01-15 23:40:00,
2013-01-15 17:41:00,34.3,33.0,30.07,WNW,292,5.0,12.0,95,0.17,,---,0.63,VWS V14.01,2013-01-15 23:41:00,
2013-01-15 17:43:00,34.2,32.9,30.06,North,360,2.0,8.0,95,0.17,,---,0.63,VWS V14.01,2013-01-15 23:43:00,
2013-01-15 17:45:00,34.2,32.9,30.03,NW,317,7.0,8.0,95,0.17,,---,0.63,VWS V14.01,2013-01-15 23:45:00,
2013-01-15 17:46:00,34.2,32.9,30.02,North,355,3.0,12.0,95,0.17,,---,0.63,VWS V14.01,2013-01-15 23:46:00,
2013-01-15 17:48:00,34.2,32.9,30.01,East,80,4.0,16.0,95,0.18,,---,0.64,VWS V14.01,2013-01-15 23:48:00,
2013-01-15 17:50:00,34.1,32.8,30.02,NE,49,3.0,16.0,95,0.18,,---,0.64,VWS V14.01,2013-01-15 23:50:00,
2013-01-15 17:51:00,34.1,32.8,30.04,East,99,3.0,4.0,95,0.17,,---,0.64,VWS V14.01,2013-01-15 23:51:00,
2013-01-15 17:53:00,34.2,32.9,30.04,SE,134,0.0,7.0,95,0.17,,---,0.64,VWS V14.01,2013-01-15 23:53:00,
2013-01-15 17:54:00,34.2,32.9,30.05,ENE,62,1.0,7.0,95,0.17,,---,0.64,VWS V14.01,2013-01-15 23:54:00,
2013-01-15 17:55:00,34.2,32.9,30.06,SE,132,1.0,7.0,95,0.17,,---,0.64,VWS V14.01,2013-01-15 23:55:00,
2013-01-15 17:56:00,34.2,32.9,30.06,East,84,4.0,4.0,95,0.17,,---,0.64,VWS V14.01,2013-01-15 23:56:00,
2013-01-15 17:58:00,34.2,32.9,30.07,NNW,330,1.0,4.0,95,0.17,,---,0.64,VWS V14.01,2013-01-15 23:58:00,
2013-01-15 17:59:00,34.2,32.9,30.07,NNW,346,1.0,4.0,95,0.17,,---,0.64,VWS V14.01,2013-01-15 23:59:00,
2013-01-15 18:00:00,34.3,33.0,30.07,NNW,334,2.0,4.0,95,0.17,,---,0.64,VWS V14.01,2013-01-16 00:00:00,
2013-01-15 18:01:00,34.3,33.0,30.08,NW,317,5.0,5.0,95,0.16,,---,0.64,VWS V14.01,2013-01-16 00:01:00,
2013-01-15 18:03:00,34.2,32.9,30.08,NNW,336,2.0,7.0,95,0.16,,---,0.64,VWS V14.01,2013-01-16 00:03:00,
2013-01-15 18:04:00,34.3,33.0,30.09,NW,315,2.0,7.0,95,0.16,,---,0.64,VWS V14.01,2013-01-16 00:04:00,
2013-01-15 18:05:00,34.3,33.0,30.10,NNW,336,2.0,7.0,95,0.16,,---,0.64,VWS V14.01,2013-01-16 00:05:00,
2013-01-15 18:06:00,34.3,33.0,30.10,NNW,328,2.0,4.0,95,0.16,,---,0.64,VWS V14.01,2013-01-16 00:06:00,
2013-01-15 18:08:00,34.3,33.0,30.11,NW,322,3.0,4.0,95,0.16,,---,0.64,VWS V14.01,2013-01-16 00:08:00,
2013-01-15 18:09:00,34.3,33.0,30.11,NNW,346,1.0,4.0,95,0.16,,---,0.64,VWS V14.01,2013-01-16 00:09:00,
2013-01-15 18:10:00,34.4,33.1,30.11,NW,311,4.0,5.0,95,0.16,,---,0.64,VWS V14.01,2013-01-16 00:10:00,
2013-01-15 18:11:00,34.4,33.1,30.11,WNW,302,7.0,9.0,95,0.16,,---,0.64,VWS V14.01,2013-01-16 00:11:00,
2013-01-15 18:13:00,34.4,33.1,30.10,NNW,337,3.0,9.0,95,0.17,,---,0.65,VWS V14.01,2013-01-16 00:13:00,
2013-01-15 18:14:00,34.4,33.1,30.10,NW,320,5.0,9.0,95,0.17,,---,0.65,VWS V14.01,2013-01-16 00:14:00,
2013-01-15 18:15:00,34.4,33.1,30.10,NNW,334,5.0,9.0,95,0.17,,---,0.65,VWS V14.01,2013-01-16 00:15:00,
2013-01-15 18:16:00,34.4,33.1,30.10,NNW,334,2.0,5.0,95,0.14,,---,0.65,VWS V14.01,2013-01-16 00:16:00,
2013-01-15 18:18:00,34.4,33.1,30.10,NNW,338,3.0,5.0,95,0.14,,---,0.65,VWS V14.01,2013-01-16 00:18:00,
2013-01-15 18:19:00,34.4,33.1,30.10,NNW,345,2.0,5.0,95,0.14,,---,0.65,VWS V14.01,2013-01-16 00:19:00,
2013-01-15 18:20:00,34.5,33.2,30.09,NNE,13,1.0,5.0,95,0.14,,---,0.65,VWS V14.01,2013-01-16 00:20:00,
2013-01-15 18:21:00,34.5,33.2,30.09,NW,304,2.0,4.0,95,0.09,,---,0.65,VWS V14.01,2013-01-16 00:21:00,
2013-01-15 18:23:00,34.4,33.1,30.09,NW,309,2.0,5.0,95,0.09,,---,0.65,VWS V14.01,2013-01-16 00:23:00,
2013-01-15 18:24:00,34.5,33.2,30.09,NNW,338,3.0,5.0,95,0.09,,---,0.65,VWS V14.01,2013-01-16 00:24:00,
2013-01-15 18:25:00,34.5,33.2,30.09,NNW,347,4.0,5.0,95,0.09,,---,0.65,VWS V14.01,2013-01-16 00:25:00,
2013-01-15 18:27:00,34.5,33.2,30.08,NNE,17,3.0,3.0,95,0.06,,---,0.65,VWS V14.01,2013-01-16 00:27:00,
2013-01-15 18:28:00,34.5,33.2,30.07,NE,40,4.0,6.0,95,0.06,,---,0.65,VWS V14.01,2013-01-16 00:28:00,
2013-01-15 18:29:00,34.4,33.1,30.06,NE,51,5.0,6.0,95,0.06,,---,0.65,VWS V14.01,2013-01-16 00:29:00,
2013-01-15 18:30:00,34.5,33.2,30.06,NE,38,1.0,6.0,95,0.06,,---,0.65,VWS V14.01,2013-01-16 00:30:00,
2013-01-15 18:32:00,34.5,33.2,30.07,NW,313,2.0,2.0,95,0.05,,---,0.65,VWS V14.01,2013-01-16 00:32:00,
2013-01-15 18:33:00,34.5,33.2,30.08,NW,321,1.0,4.0,95,0.05,,---,0.65,VWS V14.01,2013-01-16 00:33:00,
2013-01-15 18:34:00,34.5,33.2,30.08,WNW,303,2.0,4.0,95,0.05,,---,0.65,VWS V14.01,2013-01-16 00:34:00,
2013-01-15 18:35:00,34.5,33.2,30.08,NNE,15,4.0,4.0,95,0.05,,---,0.65,VWS V14.01,2013-01-16 00:35:00,
2013-01-15 18:37:00,34.5,33.2,30.08,NW,325,0.0,1.0,95,0.04,,---,0.65,VWS V14.01,2013-01-16 00:37:00,
2013-01-15 18:38:00,34.5,33.2,30.08,NNW,338,3.0,4.0,95,0.04,,---,0.65,VWS V14.01,2013-01-16 00:38:00,
2013-01-15 18:40:00,34.5,33.2,30.08,NW,324,3.0,4.0,95,0.04,,---,0.65,VWS V14.01,2013-01-16 00:40:00,
2013-01-15 18:42:00,34.5,33.2,30.08,NNW,346,1.0,4.0,95,0.02,,---,0.65,VWS V14.01,2013-01-16 00:42:00,
2013-01-15 18:44:00,34.5,33.2,30.09,NW,309,1.0,4.0,95,0.02,,---,0.65,VWS V14.01,2013-01-16 00:44:00,
2013-01-15 18:45:00,34.5,33.2,30.09,NW,323,1.0,4.0,95,0.02,,---,0.65,VWS V14.01,2013-01-16 00:45:00,
2013-01-15 18:47:00,34.5,33.2,30.09,NW,326,3.0,4.0,95,0.02,,---,0.65,VWS V14.01,2013-01-16 00:47:00,
2013-01-15 18:49:00,34.5,33.2,30.09,NNW,333,1.0,6.0,95,0.02,,---,0.65,VWS V14.01,2013-01-16 00:49:00,
2013-01-15 18:50:00,34.5,33.2,30.10,WNW,284,2.0,6.0,95,0.03,,---,0.66,VWS V14.01,2013-01-16 00:50:00,
2013-01-15 18:53:00,34.5,33.2,30.10,NNE,20,2.0,4.0,95,0.02,,---,0.66,VWS V14.01,2013-01-16 00:53:00,
2013-01-15 18:54:00,34.5,33.2,30.09,NNW,338,3.0,4.0,95,0.02,,---,0.66,VWS V14.01,2013-01-16 00:54:00,
2013-01-15 18:55:00,34.5,33.2,30.09,NW,313,2.0,5.0,95,0.02,,---,0.66,VWS V14.01,2013-01-16 00:55:00,
2013-01-15 18:58:00,34.5,33.2,30.09,NNW,344,1.0,4.0,95,0.02,,---,0.66,VWS V14.01,2013-01-16 00:58:00,
2013-01-15 18:59:00,34.5,33.2,30.09,NW,318,3.0,4.0,95,0.02,,---,0.66,VWS V14.01,2013-01-16 00:59:00,
2013-01-15 19:00:00,34.5,33.2,30.09,NE,34,2.0,4.0,95,0.02,,---,0.66,VWS V14.01,2013-01-16 01:00:00,
2013-01-15 19:01:00,34.5,33.2,30.09,NNE,20,2.0,4.0,95,0.02,,---,0.66,VWS V14.01,2013-01-16 01:01:00,
2013-01-15 19:03:00,34.5,33.2,30.09,NW,308,7.0,7.0,95,0.03,,---,0.67,VWS V14.01,2013-01-16 01:03:00,
2013-01-15 19:04:00,34.5,33.2,30.09,NW,313,4.0,7.0,95,0.03,,---,0.67,VWS V14.01,2013-01-16 01:04:00,
2013-01-15 19:05:00,34.4,33.1,30.09,NW,323,2.0,7.0,95,0.03,,---,0.67,VWS V14.01,2013-01-16 01:05:00,
2013-01-15 19:06:00,34.4,33.1,30.09,NW,315,1.0,7.0,95,0.03,,---,0.67,VWS V14.01,2013-01-16 01:06:00,
2013-01-15 19:08:00,34.5,33.2,30.09,WNW,300,3.0,3.0,95,0.03,,---,0.67,VWS V14.01,2013-01-16 01:08:00,
2013-01-15 19:09:00,34.4,33.1,30.09,NW,317,2.0,4.0,95,0.03,,---,0.67,VWS V14.01,2013-01-16 01:09:00,
2013-01-15 19:10:00,34.5,33.2,30.09,NW,323,2.0,4.0,95,0.03,,---,0.67,VWS V14.01,2013-01-16 01:10:00,
2013-01-15 19:11:00,34.5,33.2,30.09,NNW,328,4.0,4.0,95,0.03,,---,0.67,VWS V14.01,2013-01-16 01:11:00,
2013-01-15 19:13:00,34.5,33.2,30.09,NNE,22,0.0,3.0,95,0.03,,---,0.67,VWS V14.01,2013-01-16 01:13:00,
2013-01-15 19:14:00,34.5,33.2,30.08,NNW,330,0.0,4.0,95,0.04,,---,0.68,VWS V14.01,2013-01-16 01:14:00,
2013-01-15 19:15:00,34.5,33.2,30.06,NNE,22,2.0,4.0,95,0.04,,---,0.68,VWS V14.01,2013-01-16 01:15:00,
2013-01-15 19:16:00,34.5,33.2,30.06,NNW,347,2.0,4.0,95,0.04,,---,0.68,VWS V14.01,2013-01-16 01:16:00,
2013-01-15 19:18:00,34.4,33.1,30.06,NE,35,2.0,9.0,95,0.04,,---,0.69,VWS V14.01,2013-01-16 01:18:00,
2013-01-15 19:19:00,34.4,33.1,30.06,NNE,22,6.0,9.0,95,0.05,,---,0.70,VWS V14.01,2013-01-16 01:19:00,
2013-01-15 19:20:00,34.4,33.1,30.05,NW,317,0.0,9.0,95,0.05,,---,0.70,VWS V14.01,2013-01-16 01:20:00,
2013-01-15 19:21:00,34.4,33.1,30.05,NNW,338,3.0,9.0,95,0.05,,---,0.70,VWS V14.01,2013-01-16 01:21:00,
2013-01-15 19:23:00,34.3,33.0,30.06,NW,306,4.0,4.0,95,0.06,,---,0.71,VWS V14.01,2013-01-16 01:23:00,
2013-01-15 19:24:00,34.4,33.1,30.06,NW,325,3.0,6.0,95,0.06,,---,0.71,VWS V14.01,2013-01-16 01:24:00,
2013-01-15 19:25:00,34.3,33.0,30.07,WNW,294,2.0,6.0,95,0.06,,---,0.71,VWS V14.01,2013-01-16 01:25:00,
2013-01-15 19:26:00,34.3,33.0,30.07,NW,324,1.0,6.0,95,0.06,,---,0.71,VWS V14.01,2013-01-16 01:26:00,
2013-01-15 19:29:00,34.3,33.0,30.08,NW,324,2.0,6.0,95,0.07,,---,0.72,VWS V14.01,2013-01-16 01:29:00,
2013-01-15 19:30:00,34.4,33.1,30.07,NNW,338,1.0,6.0,95,0.07,,---,0.72,VWS V14.01,2013-01-16 01:30:00,
2013-01-15 19:31:00,34.3,33.0,30.07,NNW,336,1.0,6.0,95,0.07,,---,0.72,VWS V14.01,2013-01-16 01:31:00,
2013-01-15 19:34:00,34.4,33.1,30.07,NW,317,1.0,4.0,95,0.08,,---,0.73,VWS V14.01,2013-01-16 01:34:00,
2013-01-15 19:35:00,34.3,33.0,30.09,NNW,329,3.0,6.0,95,0.08,,---,0.73,VWS V14.01,2013-01-16 01:35:00,
2013-01-15 19:36:00,34.3,33.0,30.09,NNE,19,3.0,6.0,95,0.08,,---,0.73,VWS V14.01,2013-01-16 01:36:00,
2013-01-15 19:39:00,34.4,33.1,30.09,NW,323,4.0,6.0,95,0.09,,---,0.74,VWS V14.01,2013-01-16 01:39:00,
2013-01-15 19:40:00,34.4,33.1,30.08,NW,315,5.0,6.0,95,0.09,,---,0.74,VWS V14.01,2013-01-16 01:40:00,
2013-01-15 19:41:00,34.4,33.1,30.08,NNW,332,2.0,6.0,95,0.09,,---,0.74,VWS V14.01,2013-01-16 01:41:00,
2013-01-15 19:44:00,34.4,33.1,30.08,NNE,26,2.0,6.0,95,0.10,,---,0.75,VWS V14.01,2013-01-16 01:44:00,
2013-01-15 19:45:00,34.4,33.1,30.09,NNE,19,2.0,6.0,95,0.10,,---,0.75,VWS V14.01,2013-01-16 01:45:00,
2013-01-15 19:46:00,34.4,33.1,30.09,NW,317,3.0,6.0,95,0.10,,---,0.75,VWS V14.01,2013-01-16 01:46:00,
2013-01-15 19:49:00,34.4,33.1,30.09,NNW,338,4.0,5.0,95,0.10,,---,0.75,VWS V14.01,2013-01-16 01:49:00,
2013-01-15 19:50:00,34.4,33.1,30.09,NNW,334,3.0,5.0,95,0.10,,---,0.75,VWS V14.01,2013-01-16 01:50:00,
2013-01-15 19:51:00,34.4,33.1,30.08,NNW,331,2.0,6.0,95,0.10,,---,0.75,VWS V14.01,2013-01-16 01:51:00,
2013-01-15 19:54:00,34.4,33.1,30.07,NNE,27,1.0,6.0,95,0.09,,---,0.75,VWS V14.01,2013-01-16 01:54:00,
2013-01-15 19:55:00,34.4,33.1,30.07,NNE,23,6.0,6.0,95,0.09,,---,0.75,VWS V14.01,2013-01-16 01:55:00,
2013-01-15 19:56:00,34.3,33.0,30.06,ENE,67,2.0,6.0,95,0.09,,---,0.75,VWS V14.01,2013-01-16 01:56:00,
2013-01-15 20:00:00,34.4,33.1,30.06,NW,321,2.0,6.0,95,0.10,,---,0.76,VWS V14.01,2013-01-16 02:00:00,
2013-01-15 20:01:00,34.3,33.0,30.06,NW,310,0.0,6.0,95,0.10,,---,0.76,VWS V14.01,2013-01-16 02:01:00,
2013-01-15 20:05:00,34.3,33.0,30.08,NNW,329,2.0,5.0,95,0.10,,---,0.76,VWS V14.01,2013-01-16 02:05:00,
2013-01-15 20:06:00,34.4,33.1,30.08,NNW,335,2.0,5.0,95,0.10,,---,0.76,VWS V14.01,2013-01-16 02:06:00,
2013-01-15 20:10:00,34.4,33.1,30.07,North,349,2.0,5.0,95,0.09,,---,0.76,VWS V14.01,2013-01-16 02:10:00,
2013-01-15 20:11:00,34.4,33.1,30.07,NNW,343,1.0,5.0,95,0.09,,---,0.76,VWS V14.01,2013-01-16 02:11:00,
2013-01-15 20:15:00,34.4,33.1,30.04,NNW,335,1.0,5.0,95,0.09,,---,0.76,VWS V14.01,2013-01-16 02:15:00,
2013-01-15 20:16:00,34.4,33.1,30.04,ENE,66,2.0,5.0,95,0.10,,---,0.77,VWS V14.01,2013-01-16 02:16:00,
2013-01-15 20:20:00,34.3,33.0,30.04,NNW,333,0.0,5.0,95,0.09,,---,0.77,VWS V14.01,2013-01-16 02:20:00,
2013-01-15 20:21:00,34.4,33.1,30.04,NNE,17,2.0,5.0,95,0.09,,---,0.77,VWS V14.01,2013-01-16 02:21:00,
2013-01-15 20:25:00,34.4,33.1,30.04,NE,38,3.0,5.0,95,0.07,,---,0.77,VWS V14.01,2013-01-16 02:25:00,
2013-01-15 20:26:00,34.4,33.1,30.03,NNE,19,2.0,2.0,95,0.06,,---,0.77,VWS V14.01,2013-01-16 02:26:00,
2013-01-15 20:30:00,34.4,33.1,30.02,NNW,339,2.0,5.0,95,0.06,,---,0.77,VWS V14.01,2013-01-16 02:30:00,
2013-01-15 20:31:00,34.4,33.1,30.02,NNE,18,3.0,4.0,95,0.05,,---,0.77,VWS V14.01,2013-01-16 02:31:00,
2013-01-15 20:35:00,34.4,33.1,30.00,NE,53,1.0,5.0,95,0.06,,---,0.78,VWS V14.01,2013-01-16 02:35:00,
2013-01-15 20:36:00,34.4,33.1,30.00,NW,320,1.0,4.0,95,0.05,,---,0.78,VWS V14.01,2013-01-16 02:36:00,
2013-01-15 20:37:00,34.4,33.1,30.00,ENE,62,1.0,4.0,95,0.05,,---,0.78,VWS V14.01,2013-01-16 02:37:00,
2013-01-15 20:40:00,34.4,33.1,30.00,East,80,2.0,4.0,95,0.05,,---,0.78,VWS V14.01,2013-01-16 02:40:00,
2013-01-15 20:42:00,34.4,33.1,30.00,North,11,0.0,0.0,95,0.04,,---,0.78,VWS V14.01,2013-01-16 02:42:00,
2013-01-15 20:45:00,34.5,33.2,30.00,ENE,58,1.0,5.0,95,0.04,,---,0.78,VWS V14.01,2013-01-16 02:45:00,
2013-01-15 20:47:00,34.5,33.2,30.00,NNW,337,0.0,3.0,95,0.03,,---,0.78,VWS V14.01,2013-01-16 02:47:00,
2013-01-15 20:50:00,34.5,33.2,30.01,North,355,0.0,3.0,95,0.03,,---,0.78,VWS V14.01,2013-01-16 02:50:00,
2013-01-15 20:51:00,34.5,33.2,30.01,NNW,333,1.0,3.0,95,0.03,,---,0.78,VWS V14.01,2013-01-16 02:51:00,
2013-01-15 20:52:00,34.6,33.3,30.01,NW,324,1.0,1.0,95,0.03,,---,0.78,VWS V14.01,2013-01-16 02:52:00,
2013-01-15 20:55:00,34.6,33.3,30.02,NW,315,4.0,4.0,95,0.03,,---,0.78,VWS V14.01,2013-01-16 02:55:00,
2013-01-15 20:56:00,34.6,33.3,30.02,NNW,342,3.0,4.0,95,0.04,,---,0.79,VWS V14.01,2013-01-16 02:56:00,
2013-01-15 20:57:00,34.6,33.3,30.02,NNE,26,0.0,1.0,95,0.03,,---,0.79,VWS V14.01,2013-01-16 02:57:00,
2013-01-15 21:00:00,34.6,33.3,30.02,NE,46,0.0,1.0,95,0.03,,---,0.79,VWS V14.01,2013-01-16 03:00:00,
2013-01-15 21:01:00,34.6,33.3,30.02,NE,56,0.0,1.0,95,0.03,,---,0.79,VWS V14.01,2013-01-16 03:01:00,
2013-01-15 21:02:00,34.7,33.4,30.01,NE,56,0.0,0.0,95,0.03,,---,0.79,VWS V14.01,2013-01-16 03:02:00,
2013-01-15 21:05:00,34.9,33.6,30.01,NW,323,3.0,4.0,95,0.09,,---,0.88,VWS V14.01,2013-01-16 03:05:00,
2013-01-15 21:06:00,34.7,33.4,30.01,NE,36,1.0,3.0,95,0.04,,---,0.80,VWS V14.01,2013-01-16 03:06:00,
2013-01-15 21:07:00,34.7,33.4,30.00,NW,313,0.0,1.0,95,0.04,,---,0.80,VWS V14.01,2013-01-16 03:07:00,
2013-01-15 21:10:00,34.9,33.6,30.00,NW,313,3.0,4.0,95,0.08,,---,0.88,VWS V14.01,2013-01-16 03:10:00,
2013-01-15 21:11:00,34.7,33.4,29.99,ENE,73,1.0,3.0,95,0.04,,---,0.80,VWS V14.01,2013-01-16 03:11:00,
2013-01-15 21:13:00,34.7,33.4,29.99,ENE,59,1.0,2.0,95,0.04,,---,0.80,VWS V14.01,2013-01-16 03:13:00,
2013-01-15 21:15:00,34.8,33.5,30.01,NW,310,4.0,6.0,95,0.09,,---,0.89,VWS V14.01,2013-01-16 03:15:00,
2013-01-15 21:16:00,34.8,33.5,30.01,West,267,0.0,2.0,95,0.04,,---,0.80,VWS V14.01,2013-01-16 03:16:00,
2013-01-15 21:18:00,34.8,33.5,30.02,NW,315,3.0,3.0,95,0.03,,---,0.80,VWS V14.01,2013-01-16 03:18:00,
2013-01-15 21:20:00,34.8,33.5,30.02,NW,315,2.0,6.0,95,0.09,,---,0.89,VWS V14.01,2013-01-16 03:20:00,
2013-01-15 21:21:00,34.9,33.6,30.02,NNW,344,0.0,3.0,95,0.04,,---,0.81,VWS V14.01,2013-01-16 03:21:00,
2013-01-15 21:23:00,34.9,33.6,30.01,NW,317,0.0,1.0,95,0.04,,---,0.81,VWS V14.01,2013-01-16 03:23:00,
2013-01-15 21:25:00,34.8,33.5,30.02,NW,317,4.0,5.0,95,0.09,,---,0.90,VWS V14.01,2013-01-16 03:25:00,
2013-01-15 21:26:00,34.9,33.6,30.00,NW,323,0.0,1.0,95,0.04,,---,0.81,VWS V14.01,2013-01-16 03:26:00,
2013-01-15 21:28:00,34.9,33.6,30.00,NNW,334,0.0,1.0,95,0.04,,---,0.81,VWS V14.01,2013-01-16 03:28:00,
2013-01-15 21:30:00,34.8,33.5,30.03,NNW,329,5.0,7.0,95,0.10,,---,0.91,VWS V14.01,2013-01-16 03:30:00,
2013-01-15 21:31:00,34.9,33.6,30.00,NNE,27,0.0,2.0,95,0.05,,---,0.82,VWS V14.01,2013-01-16 03:31:00,
2013-01-15 21:33:00,34.9,33.6,30.00,NW,323,0.0,2.0,95,0.05,,---,0.82,VWS V14.01,2013-01-16 03:33:00,
2013-01-15 21:35:00,34.8,33.5,30.02,NNW,333,4.0,6.0,95,0.10,,---,0.92,VWS V14.01,2013-01-16 03:35:00,
2013-01-15 21:36:00,35.0,33.7,30.00,NW,323,1.0,2.0,95,0.05,,---,0.82,VWS V14.01,2013-01-16 03:36:00,
2013-01-15 21:38:00,35.0,33.7,30.01,NW,323,2.0,2.0,95,0.04,,---,0.82,VWS V14.01,2013-01-16 03:38:00,
2013-01-15 21:40:00,34.8,33.5,30.03,WNW,302,4.0,5.0,95,0.11,,---,0.93,VWS V14.01,2013-01-16 03:40:00,
2013-01-15 21:41:00,35.0,33.7,30.01,NNW,338,0.0,4.0,95,0.05,,---,0.83,VWS V14.01,2013-01-16 03:41:00,
2013-01-15 21:43:00,35.0,33.7,30.02,NNE,20,2.0,2.0,95,0.05,,---,0.83,VWS V14.01,2013-01-16 03:43:00,
2013-01-15 21:45:00,34.8,33.5,30.02,NW,312,4.0,5.0,95,0.11,,---,0.94,VWS V14.01,2013-01-16 03:45:00,
2013-01-15 21:46:00,35.1,33.8,30.03,WNW,291,1.0,2.0,95,0.05,,---,0.83,VWS V14.01,2013-01-16 03:46:00,
2013-01-15 21:47:00,35.1,33.8,30.03,North,350,0.0,1.0,95,0.05,,---,0.83,VWS V14.01,2013-01-16 03:47:00,
2013-01-15 21:48:00,35.1,33.8,30.03,NW,321,1.0,2.0,95,0.06,,---,0.84,VWS V14.01,2013-01-16 03:48:00,
2013-01-15 21:50:00,34.7,33.4,30.02,NNE,23,4.0,7.0,95,0.12,,---,0.95,VWS V14.01,2013-01-16 03:50:00,
2013-01-15 21:51:00,35.1,33.8,30.03,WNW,296,1.0,2.0,95,0.06,,---,0.84,VWS V14.01,2013-01-16 03:51:00,
2013-01-15 21:52:00,35.1,33.8,30.03,NNW,328,1.0,2.0,95,0.06,,---,0.84,VWS V14.01,2013-01-16 03:52:00,
2013-01-15 21:53:00,35.1,33.8,30.03,NNW,344,0.0,2.0,95,0.07,,---,0.85,VWS V14.01,2013-01-16 03:53:00,
2013-01-15 21:55:00,34.7,33.4,30.03,NNW,329,3.0,4.0,95,0.12,,---,0.96,VWS V14.01,2013-01-16 03:55:00,
2013-01-15 21:56:00,35.0,33.7,30.01,WNW,303,1.0,2.0,95,0.08,,---,0.86,VWS V14.01,2013-01-16 03:56:00,
2013-01-15 21:57:00,35.1,33.8,30.01,NW,307,0.0,1.0,95,0.07,,---,0.86,VWS V14.01,2013-01-16 03:57:00,
2013-01-15 21:58:00,35.0,33.7,30.01,NNW,340,1.0,2.0,95,0.07,,---,0.86,VWS V14.01,2013-01-16 03:58:00,
2013-01-15 22:00:00,34.8,33.5,30.03,NW,309,3.0,5.0,95,0.11,,---,0.97,VWS V14.01,2013-01-16 04:00:00,
2013-01-15 22:01:00,35.0,33.7,30.01,NNW,333,2.0,2.0,95,0.08,,---,0.87,VWS V14.01,2013-01-16 04:01:00,
2013-01-15 22:02:00,34.9,33.6,30.01,NW,309,1.0,2.0,95,0.08,,---,0.87,VWS V14.01,2013-01-16 04:02:00,
2013-01-15 22:03:00,34.9,33.6,30.01,NNW,344,0.0,2.0,95,0.08,,---,0.87,VWS V14.01,2013-01-16 04:03:00,
2013-01-15 22:05:00,34.7,33.4,30.03,NW,323,3.0,9.0,95,0.11,,---,0.98,VWS V14.01,2013-01-16 04:05:00,
2013-01-15 22:06:00,34.9,33.6,30.01,NW,323,3.0,3.0,95,0.08,,---,0.88,VWS V14.01,2013-01-16 04:06:00,
2013-01-15 22:07:00,34.9,33.6,30.01,NW,310,2.0,3.0,95,0.08,,---,0.88,VWS V14.01,2013-01-16 04:07:00,
2013-01-15 22:08:00,34.9,33.6,30.01,NNW,340,3.0,3.0,95,0.08,,---,0.88,VWS V14.01,2013-01-16 04:08:00,
2013-01-15 22:10:00,34.7,33.4,30.01,NW,325,4.0,6.0,95,0.10,,---,0.98,VWS V14.01,2013-01-16 04:10:00,
2013-01-15 22:12:00,34.9,33.6,30.01,NW,313,2.0,5.0,95,0.08,,---,0.88,VWS V14.01,2013-01-16 04:12:00,
2013-01-15 22:13:00,34.9,33.6,30.01,NW,313,4.0,5.0,95,0.08,,---,0.88,VWS V14.01,2013-01-16 04:13:00,
2013-01-15 22:15:00,34.7,33.4,30.01,NNW,340,3.0,7.0,95,0.11,,---,0.99,VWS V14.01,2013-01-16 04:15:00,
2013-01-15 22:17:00,34.8,33.5,30.02,NW,313,4.0,6.0,95,0.09,,---,0.89,VWS V14.01,2013-01-16 04:17:00,
2013-01-15 22:19:00,34.8,33.5,30.03,NNW,335,0.0,6.0,95,0.09,,---,0.89,VWS V14.01,2013-01-16 04:19:00,
2013-01-15 22:20:00,34.7,33.4,30.02,NNW,331,4.0,9.0,95,0.11,,---,1.00,VWS V14.01,2013-01-16 04:20:00,
2013-01-15 22:22:00,34.8,33.5,30.02,NNW,331,2.0,4.0,95,0.08,,---,0.89,VWS V14.01,2013-01-16 04:22:00,
2013-01-15 22:24:00,34.8,33.5,30.02,NW,321,2.0,5.0,95,0.09,,---,0.90,VWS V14.01,2013-01-16 04:24:00,
2013-01-15 22:25:00,34.7,33.4,30.02,NNW,334,1.0,10.0,95,0.11,,---,1.00,VWS V14.01,2013-01-16 04:25:00,
2013-01-15 22:27:00,34.8,33.5,30.02,NW,324,3.0,4.0,95,0.09,,---,0.90,VWS V14.01,2013-01-16 04:27:00,
2013-01-15 22:29:00,34.8,33.5,30.02,NW,312,3.0,5.0,95,0.09,,---,0.90,VWS V14.01,2013-01-16 04:29:00,
2013-01-15 22:30:00,34.6,33.3,30.01,NNE,20,4.0,6.0,95,0.11,,---,1.01,VWS V14.01,2013-01-16 04:30:00,
2013-01-15 22:32:00,34.8,33.5,30.03,NNW,331,1.0,5.0,95,0.09,,---,0.91,VWS V14.01,2013-01-16 04:32:00,
2013-01-15 22:34:00,34.8,33.5,30.03,NNE,15,2.0,6.0,95,0.09,,---,0.91,VWS V14.01,2013-01-16 04:34:00,
2013-01-15 22:35:00,34.6,33.3,30.00,NNW,328,3.0,5.0,95,0.11,,---,1.02,VWS V14.01,2013-01-16 04:35:00,
2013-01-15 22:37:00,34.8,33.5,30.02,NW,317,3.0,5.0,95,0.10,,---,0.92,VWS V14.01,2013-01-16 04:37:00,
2013-01-15 22:39:00,34.8,33.5,30.02,NNW,348,1.0,5.0,95,0.10,,---,0.92,VWS V14.01,2013-01-16 04:39:00,
2013-01-15 22:40:00,34.6,33.3,30.00,NNW,327,4.0,10.0,95,0.10,,---,1.02,VWS V14.01,2013-01-16 04:40:00,
2013-01-15 22:42:00,34.8,33.5,30.03,NW,306,0.0,4.0,95,0.10,,---,0.93,VWS V14.01,2013-01-16 04:42:00,
2013-01-15 22:43:00,34.8,33.5,30.03,NNW,327,2.0,4.0,95,0.10,,---,0.93,VWS V14.01,2013-01-16 04:43:00,
2013-01-15 22:44:00,34.8,33.5,30.03,NNW,328,3.0,4.0,95,0.10,,---,0.93,VWS V14.01,2013-01-16 04:44:00,
2013-01-15 22:45:00,34.6,33.3,30.01,NNE,32,4.0,5.0,95,0.10,,---,1.03,VWS V14.01,2013-01-16 04:45:00,
2013-01-15 22:47:00,34.8,33.5,30.02,NW,311,3.0,6.0,95,0.11,,---,0.94,VWS V14.01,2013-01-16 04:47:00,
2013-01-15 22:48:00,34.8,33.5,30.02,NW,308,4.0,7.0,95,0.11,,---,0.94,VWS V14.01,2013-01-16 04:48:00,
2013-01-15 22:49:00,34.8,33.5,30.02,NW,326,3.0,7.0,95,0.11,,---,0.94,VWS V14.01,2013-01-16 04:49:00,
2013-01-15 22:50:00,34.5,33.2,30.02,NE,47,2.0,6.0,95,0.09,,---,1.03,VWS V14.01,2013-01-16 04:50:00,
2013-01-15 22:52:00,34.7,33.4,30.02,NNW,333,3.0,4.0,95,0.11,,---,0.95,VWS V14.01,2013-01-16 04:52:00,
2013-01-15 22:53:00,34.7,33.4,30.02,NW,313,2.0,4.0,95,0.11,,---,0.95,VWS V14.01,2013-01-16 04:53:00,
2013-01-15 22:54:00,34.7,33.4,30.03,NW,317,0.0,4.0,95,0.11,,---,0.95,VWS V14.01,2013-01-16 04:54:00,
2013-01-15 22:55:00,34.6,33.3,30.02,WNW,302,2.0,5.0,95,0.09,,---,1.04,VWS V14.01,2013-01-16 04:55:00,
2013-01-15 22:57:00,34.8,33.5,30.03,NW,317,1.0,5.0,95,0.10,,---,0.96,VWS V14.01,2013-01-16 04:57:00,
2013-01-15 22:58:00,34.7,33.4,30.03,NNW,347,1.0,5.0,95,0.10,,---,0.96,VWS V14.01,2013-01-16 04:58:00,
2013-01-15 22:59:00,34.8,33.5,30.03,NW,321,1.0,5.0,95,0.10,,---,0.96,VWS V14.01,2013-01-16 04:59:00,
2013-01-15 23:00:00,34.8,33.5,30.03,North,350,2.0,5.0,95,0.11,,---,0.97,VWS V14.01,2013-01-16 05:00:00,
2013-01-15 23:01:00,34.8,33.5,30.03,NW,306,1.0,5.0,95,0.11,,---,0.97,VWS V14.01,2013-01-16 05:01:00,
2013-01-15 23:03:00,34.8,33.5,30.03,NW,315,3.0,9.0,95,0.10,,---,0.97,VWS V14.01,2013-01-16 05:03:00,
2013-01-15 23:05:00,34.7,33.4,30.03,WNW,299,3.0,9.0,95,0.10,,---,0.97,VWS V14.01,2013-01-16 05:05:00,
2013-01-15 23:07:00,34.7,33.4,30.02,North,350,2.0,3.0,95,0.10,,---,0.98,VWS V14.01,2013-01-16 05:07:00,
2013-01-15 23:08:00,34.7,33.4,30.02,NNW,334,4.0,6.0,95,0.10,,---,0.98,VWS V14.01,2013-01-16 05:08:00,
2013-01-15 23:10:00,34.7,33.4,30.02,NNW,333,2.0,6.0,95,0.10,,---,0.98,VWS V14.01,2013-01-16 05:10:00,
2013-01-15 23:12:00,34.7,33.4,30.01,NE,51,1.0,5.0,95,0.10,,---,0.98,VWS V14.01,2013-01-16 05:12:00,
2013-01-15 23:13:00,34.7,33.4,30.01,NW,307,1.0,5.0,95,0.11,,---,0.99,VWS V14.01,2013-01-16 05:13:00,
2013-01-15 23:15:00,34.7,33.4,30.01,NW,320,4.0,7.0,95,0.11,,---,0.99,VWS V14.01,2013-01-16 05:15:00,
2013-01-15 23:17:00,34.7,33.4,30.02,NNW,344,4.0,7.0,95,0.10,,---,0.99,VWS V14.01,2013-01-16 05:17:00,
2013-01-15 23:18:00,34.7,33.4,30.02,NW,313,3.0,7.0,95,0.10,,---,0.99,VWS V14.01,2013-01-16 05:18:00,
2013-01-15 23:20:00,34.7,33.4,30.02,NNW,328,3.0,7.0,95,0.10,,---,0.99,VWS V14.01,2013-01-16 05:20:00,
2013-01-15 23:22:00,34.7,33.4,30.02,NNW,337,10.0,10.0,95,0.11,,---,1.00,VWS V14.01,2013-01-16 05:22:00,
2013-01-15 23:24:00,34.7,33.4,30.02,WNW,301,4.0,10.0,95,0.11,,---,1.00,VWS V14.01,2013-01-16 05:24:00,
2013-01-15 23:25:00,34.7,33.4,30.02,NW,324,10.0,10.0,95,0.11,,---,1.00,VWS V14.01,2013-01-16 05:25:00,
2013-01-15 23:28:00,34.7,33.4,30.01,NW,319,4.0,5.0,95,0.10,,---,1.00,VWS V14.01,2013-01-16 05:28:00,
2013-01-15 23:29:00,34.7,33.4,30.01,NNW,328,5.0,6.0,95,0.11,,---,1.01,VWS V14.01,2013-01-16 05:29:00,
2013-01-15 23:30:00,34.7,33.4,30.01,NW,314,2.0,6.0,95,0.11,,---,1.01,VWS V14.01,2013-01-16 05:30:00,
2013-01-15 23:33:00,34.6,33.3,30.00,North,351,1.0,5.0,95,0.10,,---,1.01,VWS V14.01,2013-01-16 05:33:00,
2013-01-15 23:34:00,34.6,33.3,30.00,NNW,336,3.0,5.0,95,0.10,,---,1.01,VWS V14.01,2013-01-16 05:34:00,
2013-01-15 23:35:00,34.6,33.3,30.00,NW,326,0.0,5.0,95,0.11,,---,1.02,VWS V14.01,2013-01-16 05:35:00,
2013-01-15 23:38:00,34.6,33.3,30.00,NNW,337,4.0,4.0,95,0.10,,---,1.02,VWS V14.01,2013-01-16 05:38:00,
2013-01-15 23:39:00,34.6,33.3,30.00,North,11,2.0,5.0,95,0.10,,---,1.02,VWS V14.01,2013-01-16 05:39:00,
2013-01-15 23:40:00,34.6,33.3,30.00,NNW,331,5.0,9.0,95,0.10,,---,1.02,VWS V14.01,2013-01-16 05:40:00,
2013-01-15 23:43:00,34.5,33.2,30.00,NW,312,0.0,5.0,95,0.09,,---,1.02,VWS V14.01,2013-01-16 05:43:00,
2013-01-15 23:44:00,34.6,33.3,30.00,NW,326,3.0,5.0,95,0.09,,---,1.02,VWS V14.01,2013-01-16 05:44:00,
2013-01-15 23:45:00,34.6,33.3,30.01,NNE,22,4.0,5.0,95,0.10,,---,1.03,VWS V14.01,2013-01-16 05:45:00,
2013-01-15 23:46:00,34.5,33.2,30.01,NW,313,3.0,5.0,95,0.10,,---,1.03,VWS V14.01,2013-01-16 05:46:00,
2013-01-15 23:48:00,34.5,33.2,30.02,NW,310,5.0,6.0,95,0.09,,---,1.03,VWS V14.01,2013-01-16 05:48:00,
2013-01-15 23:49:00,34.5,33.2,30.02,WNW,293,4.0,6.0,95,0.09,,---,1.03,VWS V14.01,2013-01-16 05:49:00,
2013-01-15 23:50:00,34.6,33.3,30.01,NNW,331,2.0,6.0,95,0.08,,---,0.07,VWS V14.01,2013-01-16 05:50:00,
2013-01-15 23:51:00,34.5,33.2,30.02,NW,315,1.0,6.0,95,0.09,,---,1.03,VWS V14.01,2013-01-16 05:51:00,
2013-01-15 23:53:00,34.6,33.3,30.02,NW,307,1.0,5.0,95,0.08,,---,1.03,VWS V14.01,2013-01-16 05:53:00,
2013-01-15 23:54:00,34.5,33.2,30.02,NNE,23,2.0,5.0,95,0.08,,---,1.03,VWS V14.01,2013-01-16 05:54:00,
2013-01-15 23:55:00,34.6,33.3,30.02,NW,325,1.0,5.0,95,0.09,,---,1.04,VWS V14.01,2013-01-16 05:55:00,
2013-01-15 23:56:00,34.6,33.3,30.02,NNW,329,1.0,5.0,95,0.09,,---,1.04,VWS V14.01,2013-01-16 05:56:00,
2013-01-15 23:59:00,34.5,33.2,30.02,NNW,340,0.0,5.0,95,0.08,,---,1.04,VWS V14.01,2013-01-16 05:59:00,